Eltham High School

Historical Weather Data

                  Temp     Hi    Low   Out         Wind        Wind    Hi    Hi   Wind   Heat          THSW                Rain  Solar   Solar Hi Solar         UV    Hi     Heat    Cool    In     In          Wind  Wind    ISS   Arc.
  Date    Time     Out   Temp   Temp   Hum    Dew Speed   Dir   Run Speed   Dir  Chill  Index    THW  Index   Bar    Rain  Rate   Rad.  Energy    Rad.    UV   Dose   UV     D-D     D-D    Temp   Hum     ET   Samp   Tx   Recept  Int.
------------------------------------------------------------------------------------------------------------------------------------------------------------------------------------------------------------------------------------------
11/08/19 12:30a    7.4    7.6    7.4    81    4.3   4.8     W  2.41  24.1   WNW    6.9    7.3    6.8    4.7  1016.3  0.00   0.0     0     0.00      0     0.0  0.00   0.0   0.228   0.000   24.1    30    0.00   670    1     98.0   30 
11/08/19  1:00a    6.4    7.3    6.4    85    4.1   3.2     W  1.61  25.7   SSW    6.4    6.4    6.4    4.3  1016.5  0.25   0.0     0     0.00      0     0.0  0.00   0.0   0.248   0.000   24.1    30    0.03   701    1    100.0   30 
11/08/19  1:30a    5.8    6.4    5.8    87    3.8   1.6   WSW  0.80  35.4   SSE    5.8    5.8    5.8    3.7  1017.0  1.02   3.0     0     0.00      0     0.0  0.00   0.0   0.260   0.000   24.0    30    0.00   701    1    100.0   30 
11/08/19  2:00a    5.1    5.9    5.1    89    3.4   0.0     S  0.00  19.3   SSE    5.1    5.1    5.1    3.0  1016.8  0.76  12.4     0     0.00      0     0.0  0.00   0.0   0.275   0.000   24.0    30    0.00   673    1     98.4   30 
11/08/19  2:30a    5.1    5.1    4.9    91    3.7   0.0   ---  0.00   0.0   ---    5.1    5.0    5.0    2.9  1016.2  0.00   0.0     0     0.00      0     0.0  0.00   0.0   0.277   0.000   23.9    30    0.00   702    1    100.0   30 
11/08/19  3:00a    4.9    5.1    4.9    91    3.6   0.0     W  0.00  16.1    SW    4.9    4.9    4.9    2.8  1017.0  1.52  22.6     0     0.00      0     0.0  0.00   0.0   0.279   0.000   23.8    30    0.00   700    1    100.0   30 
11/08/19  3:30a    4.4    4.9    4.4    91    3.1   0.0    NW  0.00  14.5    NW    4.4    4.4    4.4    2.3  1016.4  0.76   5.6     0     0.00      0     0.0  0.00   0.0   0.289   0.000   23.8    30    0.00   702    1    100.0   30 
11/08/19  4:00a    4.2    4.4    4.2    92    3.0   0.0    NW  0.00   9.7    NW    4.2    4.2    4.2    2.1  1016.6  0.00   0.0     0     0.00      0     0.0  0.00   0.0   0.294   0.000   23.7    30    0.00   702    1    100.0   30 
11/08/19  4:30a    4.4    4.4    4.2    92    3.3   0.0     W  0.00  20.9   WNW    4.4    4.4    4.4    2.3  1016.9  1.02   4.1     0     0.00      0     0.0  0.00   0.0   0.289   0.000   23.6    30    0.00   702    1    100.0   30 
11/08/19  5:00a    4.4    4.4    4.3    92    3.2   0.0   ---  0.00   0.0   ---    4.4    4.4    4.4    2.3  1016.7  0.00   0.0     0     0.00      0     0.0  0.00   0.0   0.291   0.000   23.6    30    0.00   700    1    100.0   30 
11/08/19  5:30a    3.9    4.4    3.9    92    2.8   0.0   ---  0.00   0.0   ---    3.9    3.9    3.9    1.8  1017.3  0.00   0.0     0     0.00      0     0.0  0.00   0.0   0.300   0.000   23.5    30    0.00   702    1    100.0   30 
11/08/19  6:00a    3.7    4.0    3.7    92    2.5   0.0   ---  0.00   0.0   ---    3.7    3.7    3.7    1.6  1017.6  0.00   0.0     0     0.00      0     0.0  0.00   0.0   0.304   0.000   23.4    30    0.00   702    1    100.0   30 
11/08/19  6:30a    3.9    3.9    3.7    93    2.9   0.0     W  0.00   8.0     W    3.9    3.9    3.9    1.8  1018.0  0.00   0.0     0     0.00      0     0.0  0.00   0.0   0.300   0.000   23.3    30    0.00   699    1    100.0   30 
11/08/19  7:00a    4.2    4.2    3.9    92    3.0   0.0   NNW  0.00  14.5   NNW    4.2    4.2    4.2    2.1  1018.6  0.00   0.0     0     0.00      0     0.0  0.00   0.0   0.295   0.000   23.2    30    0.00   703    1    100.0   30 
11/08/19  7:30a    4.0    4.3    4.0    92    2.8   0.0   WSW  0.00  22.5     W    4.0    3.9    3.9    1.9  1018.9  2.79  12.4     1     0.04      5     0.0  0.00   0.0   0.299   0.000   23.2    30    0.00   701    1    100.0   30 
11/08/19  8:00a    4.2    4.2    4.0    93    3.2   0.0   ---  0.00   0.0   ---    4.2    4.2    4.2    2.3  1019.3  0.25   3.3    12     0.52     26     0.0  0.00   0.0   0.294   0.000   23.2    30    0.00   701    1    100.0   30 
11/08/19  8:30a    4.7    4.7    4.2    93    3.7   0.0    SW  0.00   3.2    SW    4.7    4.7    4.7    4.9  1019.9  0.00   0.0    57     2.45     77     0.0  0.00   0.0   0.284   0.000   23.1    30    0.00   700    1    100.0   30 
11/08/19  9:00a    5.4    5.4    4.7    94    4.5   0.0   ---  0.00   0.0   ---    5.4    5.4    5.4    7.2  1020.7  0.00   0.0   130     5.59    206     0.0  0.00   0.0   0.270   0.000   23.2    30    0.03   700    1    100.0   30 
11/08/19  9:30a    5.8    5.8    5.4    94    4.9   0.0   ---  0.00   0.0   ---    5.8    5.9    5.9    7.9  1021.1  0.00   0.0   155     6.67    216     0.0  0.00   0.0   0.260   0.000   23.2    30    0.00   702    1    100.0   30 
11/08/19 10:00a    6.5    6.5    5.8    93    5.4   0.0    SW  0.00  12.9    SW    6.5    6.6    6.6    9.2  1021.6  0.00   0.0   197     8.47    299     0.0  0.00   0.0   0.247   0.000   23.4    30    0.08   700    1    100.0   30 
11/08/19 10:30a    7.6    7.6    6.5    92    6.3   0.0    SW  0.00  17.7    SW    7.6    7.7    7.7   10.1  1022.4  0.00   0.0   194     8.34    302     0.2  0.04   0.8   0.225   0.000   23.5    30    0.00   702    1    100.0   30 
11/08/19 11:00a    8.2    8.2    7.6    89    6.5   0.0   ---  0.00   0.0   ---    8.2    8.3    8.3   10.6  1022.7  0.00   0.0   193     8.30    255     0.4  0.09   1.2   0.211   0.000   23.6    30    0.10   701    1    100.0   30 
11/08/19 11:30a    9.7    9.7    8.2    85    7.3   0.0   ---  0.00   0.0   ---    9.7    9.8    9.8   14.5  1023.0  0.00   0.0   374    16.08    763     1.2  0.26   1.6   0.179   0.000   23.8    30    0.00   702    1    100.0   30 
11/08/19 12:00p   11.2   11.2    9.7    81    8.0   0.0   WSW  0.00   1.6   WSW   11.2   11.1   11.1   16.1  1023.0  0.00   0.0   405    17.42    803     1.2  0.26   1.8   0.149   0.000   24.0    30    0.20   701    1    100.0   30 
11/08/19 12:30p   12.7   12.8   11.2    68    6.9   6.4    SW  3.22  35.4   SSE   12.4   12.2   11.8   17.1  1023.0  0.00   0.0   458    19.70    752     1.5  0.32   1.9   0.118   0.000   24.2    30    0.00   698    1    100.0   30 
11/08/19  1:00p   11.4   12.7   11.4    76    7.4   8.0     S  4.02  38.6   SSE   10.7   11.2   10.4   12.8  1023.5  0.25   0.0   201     8.64    381     0.6  0.13   1.2   0.144   0.000   24.4    30    0.18   697    1    100.0   30 
11/08/19  1:30p   11.8   11.8   10.7    82    8.8   1.6   SSE  0.80  38.6     S   11.8   11.7   11.7   15.2  1023.4  0.25   1.0   266    11.44    737     0.8  0.17   1.6   0.137   0.000   24.5    31    0.00   698    1    100.0   30 
11/08/19  2:00p   12.8   12.8   11.8    74    8.3   9.7   SSW  4.83  46.7   SSE   12.0   12.4   11.6   14.4  1023.6  0.00   0.0   213     9.16    719     0.6  0.13   1.4   0.116   0.000   24.6    31    0.15   662    1     96.8   30 
11/08/19  2:30p   12.4   12.8   12.3    75    8.1   9.7    SW  4.83  41.8     S   11.6   12.2   11.2   14.9  1024.3  0.00   0.0   255    10.97    596     0.9  0.19   1.4   0.123   0.000   24.6    31    0.00   701    1    100.0   30 
11/08/19  3:00p   11.9   12.4   11.9    81    8.8   9.7    SW  4.83  43.5     S   11.0   11.8   10.8   14.6  1024.8  0.00   0.0   248    10.67    508     0.5  0.11   1.0   0.133   0.000   24.6    32    0.18   700    1    100.0   30 
11/08/19  3:30p   11.3   12.1   11.3    87    9.2   8.0   SSW  4.02  37.0   SSE   10.5   11.3   10.5   12.8  1025.0  0.51  13.5   154     6.62    621     0.1  0.02   0.7   0.147   0.000   24.8    32    0.00   702    1    100.0   30 
11/08/19  4:00p   11.8   11.8   11.2    87    9.7   8.0    SW  4.02  51.5   SSE   11.2   11.8   11.1   15.2  1025.4  0.00   0.0   237    10.19    362     0.0  0.00   0.0   0.135   0.000   24.8    32    0.13   702    1    100.0   30 
11/08/19  4:30p   10.8   11.8   10.8    90    9.2   3.2    SW  1.61  22.5     S   10.8   10.9   10.9    9.8  1026.1  2.54  63.5    64     2.75    186     0.0  0.00   0.0   0.157   0.000   24.9    33    0.00   699    1    100.0   30 
11/08/19  5:00p   10.7   10.9   10.7    91    9.3   0.0     S  0.00  16.1   SSE   10.7   10.8   10.8    9.7  1026.8  0.25   1.0    55     2.37    146     0.0  0.00   0.0   0.159   0.000   24.9    33    0.03   699    1    100.0   30 
11/08/19  5:30p   10.6   10.7   10.6    92    9.4   1.6     S  0.80  32.2   SSE   10.6   10.8   10.8    9.1  1027.3  0.25   1.0    10     0.43     18     0.0  0.00   0.0   0.161   0.000   25.0    33    0.00   701    1    100.0   30 
11/08/19  6:00p   10.4   10.6   10.4    92    9.2   1.6   SSW  0.80  22.5     S   10.4   10.6   10.6    8.8  1028.0  0.00   0.0     0     0.00      0     0.0  0.00   0.0   0.164   0.000   24.9    33    0.00   702    1    100.0   30 
11/08/19  6:30p   10.3   10.4   10.3    91    8.9   1.6    SW  0.80  19.3    SE   10.3   10.5   10.5    8.7  1028.7  0.00   0.0     0     0.00      0     0.0  0.00   0.0   0.167   0.000   24.9    33    0.00   701    1    100.0   30 
11/08/19  7:00p   10.4   10.5   10.3    92    9.2   1.6    SW  0.80  16.1    SW   10.4   10.6   10.6    8.8  1029.3  0.00   0.0     0     0.00      0     0.0  0.00   0.0   0.164   0.000   24.9    34    0.00   700    1    100.0   30 
11/08/19  7:30p   10.3   10.4   10.3    92    9.1   0.0    SW  0.00  16.1    SW   10.3   10.5   10.5    8.7  1029.7  0.00   0.0     0     0.00      0     0.0  0.00   0.0   0.167   0.000   24.9    34    0.00   701    1    100.0   30 
11/08/19  8:00p   10.2   10.4   10.2    93    9.1   0.0    SW  0.00   6.4    SW   10.2   10.4   10.4    8.6  1030.3  0.00   0.0     0     0.00      0     0.0  0.00   0.0   0.169   0.000   24.8    34    0.00   697    1    100.0   30 
11/08/19  8:30p   10.3   10.3   10.2    93    9.2   1.6   WSW  0.80  20.9   WSW   10.3   10.5   10.5    8.7  1030.4  0.00   0.0     0     0.00      0     0.0  0.00   0.0   0.168   0.000   24.8    34    0.00   702    1    100.0   30 
11/08/19  9:00p   10.2   10.3   10.2    93    9.1   1.6    SW  0.80  16.1     S   10.2   10.4   10.4    8.6  1030.8  0.00   0.0     0     0.00      0     0.0  0.00   0.0   0.170   0.000   24.8    34    0.00   700    1    100.0   30 
11/08/19  9:30p   10.1   10.2   10.1    94    9.1   1.6    SW  0.80  12.9   SSW   10.1   10.3   10.3    8.4  1031.1  0.00   0.0     0     0.00      0     0.0  0.00   0.0   0.172   0.000   24.8    34    0.00   700    1    100.0   30 
11/08/19 10:00p   10.0   10.1   10.0    94    9.1   1.6    SW  0.80  11.3    SW   10.0   10.3   10.3    8.4  1031.3  0.00   0.0     0     0.00      0     0.0  0.00   0.0   0.174   0.000   24.8    34    0.00   672    1     98.2   30 
11/08/19 10:30p   10.1   10.1   10.0    94    9.1   1.6     S  0.80  16.1   WSW   10.1   10.3   10.3    8.4  1031.6  0.25   0.0     0     0.00      0     0.0  0.00   0.0   0.172   0.000   24.8    34    0.00   700    1    100.0   30 
11/08/19 11:00p    9.9   10.1    9.9    94    9.0   1.6    SW  0.80  19.3   WSW    9.9   10.2   10.2    8.3  1031.7  0.25   0.0     0     0.00      0     0.0  0.00   0.0   0.176   0.000   24.8    34    0.00   702    1    100.0   30 
11/08/19 11:30p    9.8    9.9    9.8    95    9.0   1.6    SW  0.80  20.9    SW    9.8   10.1   10.1    8.2  1032.0  0.76   8.9     0     0.00      0     0.0  0.00   0.0   0.178   0.000   24.7    34    0.00   702    1    100.0   30 
12/08/19 12:00a    9.6    9.8    9.6    95    8.8   1.6     S  0.80  30.6   SSE    9.6    9.9    9.9    8.1  1032.3  1.52  25.4     0     0.00      0     0.0  0.00   0.0   0.182   0.000   24.7    34    0.00   701    1    100.0   30 
12/08/19 12:30a    9.6    9.6    9.6    95    8.8   0.0     S  0.00  19.3     S    9.6    9.8    9.8    8.0  1032.4  0.76   2.5     0     0.00      0     0.0  0.00   0.0   0.183   0.000   24.7    35    0.00   701    1    100.0   30 
12/08/19  1:00a    9.6    9.6    9.5    95    8.8   1.6    SW  0.80  16.1   SSW    9.6    9.9    9.9    8.1  1032.7  0.25   2.0     0     0.00      0     0.0  0.00   0.0   0.182   0.000   24.8    34    0.00   659    1     96.3   30 
12/08/19  1:30a    9.7    9.7    9.6    95    8.9   1.6   WSW  0.80  25.7     W    9.7    9.9    9.9    8.1  1032.9  2.03  16.0     0     0.00      0     0.0  0.00   0.0   0.181   0.000   24.7    35    0.00   703    1    100.0   30 
12/08/19  2:00a    9.4    9.7    9.4    95    8.7   0.0    SW  0.00  20.9     W    9.4    9.7    9.7    7.9  1033.0  1.02   9.4     0     0.00      0     0.0  0.00   0.0   0.185   0.000   24.7    35    0.00   702    1    100.0   30 
12/08/19  2:30a    9.3    9.4    9.3    95    8.6   1.6   WSW  0.80  17.7    SW    9.3    9.6    9.6    7.8  1033.1  0.51   6.3     0     0.00      0     0.0  0.00   0.0   0.188   0.000   24.7    35    0.00   702    1    100.0   30 
12/08/19  3:00a    9.2    9.4    9.2    95    8.5   1.6   WSW  0.80  19.3   WSW    9.2    9.5    9.5    7.7  1033.2  0.25   0.0     0     0.00      0     0.0  0.00   0.0   0.190   0.000   24.6    35    0.00   703    1    100.0   30 
12/08/19  3:30a    8.9    9.2    8.9    95    8.2   1.6    SW  0.80  25.7   SSE    8.9    9.2    9.2    7.3  1033.2  0.00   0.0     0     0.00      0     0.0  0.00   0.0   0.196   0.000   24.6    35    0.00   699    1    100.0   30 
12/08/19  4:00a    8.8    8.9    8.8    96    8.2   0.0   WSW  0.00  14.5   WSW    8.8    9.1    9.1    7.2  1033.5  0.51   2.0     0     0.00      0     0.0  0.00   0.0   0.198   0.000   24.6    35    0.00   674    1     98.5   30 
12/08/19  4:30a    8.7    8.8    8.7    95    8.0   0.0   ---  0.00   0.0   ---    8.7    8.9    8.9    7.1  1033.8  0.25   2.0     0     0.00      0     0.0  0.00   0.0   0.200   0.000   24.6    35    0.00   699    1    100.0   30 
12/08/19  5:00a    8.4    8.7    8.4    95    7.6   1.6   WSW  0.80  20.9   WSW    8.4    8.6    8.6    6.7  1034.1  0.51   1.0     0     0.00      0     0.0  0.00   0.0   0.207   0.000   24.5    35    0.00   701    1    100.0   30 
12/08/19  5:30a    8.2    8.4    8.2    96    7.6   0.0   WSW  0.00   8.0   WSW    8.2    8.4    8.4    6.5  1034.5  1.78   9.1     0     0.00      0     0.0  0.00   0.0   0.211   0.000   24.5    35    0.00   700    1    100.0   30 
12/08/19  6:00a    8.2    8.2    8.2    96    7.6   0.0   WSW  0.00  14.5   WSW    8.2    8.4    8.4    6.5  1034.8  0.76   9.1     0     0.00      0     0.0  0.00   0.0   0.211   0.000   24.5    35    0.00   679    1     99.3   30 
12/08/19  6:30a    7.9    8.2    7.9    96    7.3   0.0    SW  0.00   8.0    SW    7.9    8.1    8.1    6.2  1035.2  0.00   0.0     0     0.00      0     0.0  0.00   0.0   0.216   0.000   24.5    35    0.00   700    1    100.0   30 
12/08/19  7:00a    7.5    7.9    7.5    95    6.8   0.0   ---  0.00   0.0   ---    7.5    7.7    7.7    5.7  1035.6  0.00   0.0     0     0.00      0     0.0  0.00   0.0   0.226   0.000   24.4    35    0.00   701    1    100.0   30 
12/08/19  7:30a    6.9    7.5    6.9    95    6.2   0.0   ---  0.00   0.0   ---    6.9    7.1    7.1    5.2  1036.0  0.00   0.0     7     0.30     14     0.0  0.00   0.0   0.237   0.000   24.2    35    0.00   701    1    100.0   30 
12/08/19  8:00a    7.6    7.6    6.8    96    7.0   0.0   ---  0.00   0.0   ---    7.6    7.7    7.7    6.4  1036.4  0.00   0.0    54     2.32    102     0.0  0.00   0.0   0.225   0.000   24.1    35    0.03   701    1    100.0   30 
12/08/19  8:30a    7.9    8.0    7.6    96    7.3   0.0   ---  0.00   0.0   ---    7.9    8.1    8.1    9.3  1036.8  0.00   0.0   108     4.64    209     0.0  0.00   0.0   0.218   0.000   24.0    35    0.00   702    1    100.0   30 
12/08/19  9:00a    8.4    8.5    7.8    96    7.8   0.0   ---  0.00   0.0   ---    8.4    8.6    8.6   11.4  1037.1  0.00   0.0   195     8.39    341     0.0  0.00   0.0   0.207   0.000   25.7    35    0.08   702    1    100.0   30 
12/08/19  9:30a    8.8    9.0    8.3    96    8.2   0.0    SW  0.00   9.7    SW    8.8    9.1    9.1   12.7  1037.5  0.00   0.0   242    10.41    367     0.0  0.00   0.0   0.198   0.000   26.4    35    0.00   699    1    100.0   30 
12/08/19 10:00a    9.3    9.3    8.7    93    8.2   1.6   WSW  0.80  22.5   NNW    9.3    9.5    9.5   12.8  1037.7  0.00   0.0   231     9.93    503     0.1  0.02   0.6   0.189   0.000   26.6    35    0.00   702    1    100.0   30 
12/08/19 10:30a    9.8    9.8    9.3    86    7.5   0.0   WSW  0.00  14.5   WSW    9.8    9.8    9.8   12.8  1037.8  0.00   0.0   218     9.38    584     0.2  0.04   0.8   0.178   0.000   27.0    35    0.10   700    1    100.0   30 
12/08/19 11:00a   10.9   10.9    9.8    80    7.6   1.6   SSW  0.80  17.7   SSW   10.9   10.8   10.8   15.6  1037.8  0.00   0.0   379    16.30    775     0.9  0.19   1.4   0.155   0.000   27.2    35    0.15   701    1    100.0   30 
12/08/19 11:30a   10.4   10.9   10.4    83    7.7   0.0   SSW  0.00  11.3   SSW   10.4   10.4   10.4   12.3  1038.0  0.00   0.0   171     7.35    287     0.5  0.11   1.4   0.164   0.000   27.7    34    0.00   700    1    100.0   30 
12/08/19 12:00p   11.9   11.9   10.3    73    7.3   1.6    SW  0.80  16.1    SW   11.9   11.6   11.6   18.2  1037.6  0.00   0.0   588    25.29    846     1.5  0.32   1.9   0.133   0.000   28.4    34    0.18   702    1    100.0   30 
12/08/19 12:30p   11.8   12.0   11.1    74    7.3   0.0   SSW  0.00  19.3   SSW   11.8   11.5   11.5   15.3  1037.5  0.00   0.0   301    12.94    772     1.0  0.21   1.9   0.137   0.000   28.9    34    0.00   701    1    100.0   30 
12/08/19  1:00p   11.2   11.8   10.9    74    6.7   1.6   WSW  0.80  24.1   WSW   11.2   10.9   10.9   13.3  1037.4  0.00   0.0   206     8.86    352     0.8  0.17   1.2   0.149   0.000   29.2    34    0.13   675    1     98.7   30 
12/08/19  1:30p   11.7   11.7   11.2    70    6.4   1.6   SSW  0.80  19.3   SSE   11.7   11.3   11.3   14.3  1037.1  0.00   0.0   237    10.19    360     0.9  0.19   1.7   0.139   0.000   28.3    33    0.00   701    1    100.0   30 
12/08/19  2:00p   11.8   12.0   11.7    70    6.5   1.6   SSW  0.80  14.5   SSW   11.8   11.4   11.4   15.9  1037.1  0.00   0.0   333    14.32    717     0.8  0.17   1.5   0.135   0.000   27.6    34    0.15   699    1    100.0   30 
12/08/19  2:30p   11.4   11.9   11.4    69    5.9   1.6    SW  0.80  14.5   SSW   11.4   11.0   11.0   13.3  1037.1  0.00   0.0   180     7.74    661     0.3  0.06   1.1   0.145   0.000   27.1    34    0.00   701    1    100.0   30 
12/08/19  3:00p   11.2   11.4   11.2    71    6.1   0.0    SW  0.00   9.7    SW   11.2   10.8   10.8   11.6  1037.4  0.00   0.0    88     3.78    172     0.0  0.00   0.5   0.149   0.000   26.9    33    0.08   700    1    100.0   30 
12/08/19  3:30p   11.6   11.6   11.1    69    6.1   0.0    SW  0.00  12.9    SW   11.6   11.2   11.2   13.5  1037.4  0.00   0.0   158     6.79    237     0.0  0.00   0.0   0.140   0.000   26.9    33    0.00   701    1    100.0   30 
12/08/19  4:00p   11.8   12.0   11.6    63    5.0   0.0     W  0.00  14.5    SW   11.8   11.2   11.2   12.4  1037.5  0.00   0.0   108     4.64    186     0.0  0.00   0.0   0.137   0.000   26.6    32    0.00   676    1     98.8   30 
12/08/19  4:30p   11.0   11.8   11.0    71    5.9   1.6    SW  0.80  19.3   SSW   11.0   10.7   10.7    9.2  1037.8  0.00   0.0    24     1.03     32     0.0  0.00   0.0   0.153   0.000   26.1    32    0.08   699    1    100.0   30 
12/08/19  5:00p   10.7   11.0   10.7    73    6.0   0.0   ---  0.00   0.0   ---   10.7   10.4   10.4    8.8  1038.0  0.00   0.0    19     0.82     21     0.0  0.00   0.0   0.160   0.000   25.7    32    0.03   679    1     99.3   30 
12/08/19  5:30p   10.4   10.7   10.4    73    5.8   0.0    SW  0.00  20.9   WSW   10.4   10.2   10.2    8.6  1038.2  0.00   0.0    14     0.60     21     0.0  0.00   0.0   0.164   0.000   25.6    32    0.00   701    1    100.0   30 
12/08/19  6:00p   10.2   10.4   10.2    75    5.9   0.0    SW  0.00   6.4    SW   10.2   10.1   10.1    8.2  1038.4  0.00   0.0     0     0.00      5     0.0  0.00   0.0   0.170   0.000   26.1    32    0.00   703    1    100.0   30 
12/08/19  6:30p    9.9   10.2    9.9    78    6.3   0.0   ---  0.00   0.0   ---    9.9    9.9    9.9    8.1  1038.6  0.00   0.0     0     0.00      0     0.0  0.00   0.0   0.175   0.000   26.3    31    0.00   699    1    100.0   30 
12/08/19  7:00p    9.4    9.9    9.4    80    6.2   0.0   ---  0.00   0.0   ---    9.4    9.4    9.4    7.6  1038.9  0.00   0.0     0     0.00      0     0.0  0.00   0.0   0.185   0.000   26.4    31    0.03   703    1    100.0   30 
12/08/19  7:30p    9.1    9.4    9.0    83    6.3   0.0   ---  0.00   0.0   ---    9.1    9.1    9.1    7.2  1038.9  0.00   0.0     0     0.00      0     0.0  0.00   0.0   0.193   0.000   26.4    31    0.00   701    1    100.0   30 
12/08/19  8:00p    8.8    9.1    8.8    86    6.6   0.0   ---  0.00   0.0   ---    8.8    8.8    8.8    7.0  1039.0  0.00   0.0     0     0.00      0     0.0  0.00   0.0   0.198   0.000   25.8    32    0.00   699    1    100.0   30 
12/08/19  8:30p    8.5    8.9    8.5    86    6.3   0.0   ---  0.00   0.0   ---    8.5    8.5    8.5    6.7  1039.1  0.00   0.0     0     0.00      0     0.0  0.00   0.0   0.205   0.000   25.9    32    0.00   703    1    100.0   30 
12/08/19  9:00p    7.8    8.5    7.8    87    5.7   0.0   ---  0.00   0.0   ---    7.8    7.8    7.8    5.9  1039.2  0.00   0.0     0     0.00      0     0.0  0.00   0.0   0.220   0.000   25.9    32    0.00   672    1     98.2   30 
12/08/19  9:30p    7.4    7.8    7.4    88    5.6   0.0   ---  0.00   0.0   ---    7.4    7.4    7.4    5.6  1039.4  0.00   0.0     0     0.00      0     0.0  0.00   0.0   0.227   0.000   25.9    32    0.00   701    1    100.0   30 
12/08/19 10:00p    7.8    7.8    7.4    90    6.2   0.0   ---  0.00   0.0   ---    7.8    7.8    7.8    6.0  1039.6  0.00   0.0     0     0.00      0     0.0  0.00   0.0   0.220   0.000   25.8    32    0.00   676    1     98.8   30 
12/08/19 10:30p    7.8    7.8    7.7    90    6.3   0.0   ---  0.00   0.0   ---    7.8    7.9    7.9    6.1  1039.5  0.00   0.0     0     0.00      0     0.0  0.00   0.0   0.219   0.000   25.8    32    0.00   700    1    100.0   30 
12/08/19 11:00p    7.6    7.8    7.6    90    6.1   0.0   ---  0.00   0.0   ---    7.6    7.7    7.7    5.8  1039.5  0.00   0.0     0     0.00      0     0.0  0.00   0.0   0.223   0.000   25.7    32    0.00   701    1    100.0   30 
12/08/19 11:30p    8.7    8.8    7.6    87    6.7   0.0    SW  0.00   9.7    SW    8.7    8.8    8.8    6.9  1039.4  0.00   0.0     0     0.00      0     0.0  0.00   0.0   0.200   0.000   25.6    32    0.00   701    1    100.0   30 
13/08/19 12:00a    8.7    8.9    8.7    87    6.7   0.0    SW  0.00  12.9    SW    8.7    8.8    8.8    6.9  1039.4  0.00   0.0     0     0.00      0     0.0  0.00   0.0   0.200   0.000   25.5    32    0.00   700    1    100.0   30 
13/08/19 12:30a    8.5    8.8    8.5    88    6.6   0.0   ---  0.00   0.0   ---    8.5    8.6    8.6    6.7  1039.2  0.00   0.0     0     0.00      0     0.0  0.00   0.0   0.205   0.000   25.4    32    0.00   699    1    100.0   30 
13/08/19  1:00a    7.9    8.5    7.9    89    6.2   0.0   ---  0.00   0.0   ---    7.9    8.0    8.0    6.2  1039.2  0.00   0.0     0     0.00      0     0.0  0.00   0.0   0.216   0.000   25.4    32    0.00   701    1    100.0   30 
13/08/19  1:30a    7.9    7.9    7.8    90    6.4   0.0   ---  0.00   0.0   ---    7.9    8.0    8.0    6.2  1039.0  0.00   0.0     0     0.00      0     0.0  0.00   0.0   0.216   0.000   25.3    32    0.00   700    1    100.0   30 
13/08/19  2:00a    7.9    7.9    7.9    91    6.5   0.0   ---  0.00   0.0   ---    7.9    8.0    8.0    6.2  1039.0  0.00   0.0     0     0.00      0     0.0  0.00   0.0   0.218   0.000   25.2    32    0.00   701    1    100.0   30 
13/08/19  2:30a    7.9    7.9    7.9    91    6.5   0.0   ---  0.00   0.0   ---    7.9    8.0    8.0    6.2  1038.9  0.00   0.0     0     0.00      0     0.0  0.00   0.0   0.218   0.000   25.1    32    0.00   699    1    100.0   30 
13/08/19  3:00a    7.9    7.9    7.9    91    6.6   0.0   ---  0.00   0.0   ---    7.9    8.1    8.1    6.2  1038.9  0.00   0.0     0     0.00      0     0.0  0.00   0.0   0.216   0.000   25.1    32    0.00   701    1    100.0   30 
13/08/19  3:30a    7.8    7.9    7.8    91    6.4   0.0   ---  0.00   0.0   ---    7.8    7.8    7.8    6.0  1038.6  0.00   0.0     0     0.00      0     0.0  0.00   0.0   0.220   0.000   25.0    32    0.00   700    1    100.0   30 
13/08/19  4:00a    7.9    7.9    7.8    92    6.7   0.0   ---  0.00   0.0   ---    7.9    8.0    8.0    6.2  1038.6  0.00   0.0     0     0.00      0     0.0  0.00   0.0   0.218   0.000   25.0    32    0.00   700    1    100.0   30 
13/08/19  4:30a    7.8    7.9    7.8    92    6.6   0.0   ---  0.00   0.0   ---    7.8    7.9    7.9    6.1  1038.7  0.00   0.0     0     0.00      0     0.0  0.00   0.0   0.219   0.000   24.9    32    0.00   702    1    100.0   30 
13/08/19  5:00a    8.1    8.1    7.8    93    7.0   0.0   ---  0.00   0.0   ---    8.1    8.2    8.2    6.4  1038.9  0.00   0.0     0     0.00      0     0.0  0.00   0.0   0.213   0.000   24.9    32    0.00   676    1     98.8   30 
13/08/19  5:30a    8.3    8.3    8.1    93    7.2   0.0   ---  0.00   0.0   ---    8.3    8.4    8.4    6.6  1039.0  0.00   0.0     0     0.00      0     0.0  0.00   0.0   0.209   0.000   24.8    32    0.00   701    1    100.0   30 
13/08/19  6:00a    8.3    8.4    8.3    92    7.1   0.0   ---  0.00   0.0   ---    8.3    8.4    8.4    6.6  1039.3  0.00   0.0     0     0.00      0     0.0  0.00   0.0   0.208   0.000   24.8    32    0.00   700    1    100.0   30 
13/08/19  6:30a    8.4    8.4    8.3    93    7.3   0.0   ---  0.00   0.0   ---    8.4    8.6    8.6    6.8  1039.8  0.00   0.0     0     0.00      0     0.0  0.00   0.0   0.207   0.000   24.8    32    0.00   701    1    100.0   30 
13/08/19  7:00a    8.4    8.4    8.3    94    7.5   0.0   ---  0.00   0.0   ---    8.4    8.6    8.6    6.8  1040.2  0.25   0.0     0     0.00      0     0.0  0.00   0.0   0.207   0.000   24.8    32    0.00   679    1     99.3   30 
13/08/19  7:30a    8.4    8.4    8.3    94    7.5   0.0   ---  0.00   0.0   ---    8.4    8.6    8.6    6.9  1040.6  0.25   0.0     6     0.26     14     0.0  0.00   0.0   0.206   0.000   25.7    32    0.00   701    1    100.0   30 
13/08/19  8:00a    8.7    8.7    8.4    95    7.9   0.0   ---  0.00   0.0   ---    8.7    8.9    8.9    7.4  1040.7  0.00   0.0    26     1.12     35     0.0  0.00   0.0   0.201   0.000   26.3    32    0.00   702    1    100.0   30 
13/08/19  8:30a    8.8    8.8    8.7    95    8.1   0.0   ---  0.00   0.0   ---    8.8    9.1    9.1    9.1  1041.0  0.00   0.0    44     1.89     53     0.0  0.00   0.0   0.198   0.000   26.5    33    0.00   699    1    100.0   30 
13/08/19  9:00a    9.0    9.0    8.8   100    9.0   0.0   ---  0.00   0.0   ---    9.0    9.3    9.3   10.0  1041.1  0.00   0.0    73     3.14    111     0.0  0.00   0.0   0.194   0.000   26.9    34    0.03   701    1    100.0   30 
13/08/19  9:30a    9.3    9.3    9.0    95    8.5   0.0   ---  0.00   0.0   ---    9.3    9.6    9.6   10.5  1041.5  0.00   0.0    93     4.00    139     0.0  0.00   0.0   0.189   0.000   27.0    35    0.00   702    1    100.0   30 
13/08/19 10:00a    9.5    9.6    9.3    95    8.7   0.0    SW  0.00   6.4    SW    9.5    9.8    9.8   10.9  1041.6  0.51   1.0   108     4.64    135     0.0  0.00   0.0   0.184   0.000   27.0    36    0.05   699    1    100.0   30 
13/08/19 10:30a    9.7    9.8    9.5    95    9.0   0.0   ---  0.00   0.0   ---    9.7   10.0   10.0   11.4  1041.7  0.00   0.0   131     5.63    151     0.0  0.00   0.0   0.179   0.000   27.8    35    0.00   701    1    100.0   30 
13/08/19 11:00a   10.1   10.1    9.7    95    9.3   0.0   ---  0.00   0.0   ---   10.1   10.3   10.3   11.2  1041.5  0.00   0.0   108     4.64    118     0.0  0.00   0.0   0.172   0.000   28.6    34    0.05   700    1    100.0   30 
13/08/19 11:30a   10.2   10.2   10.0    95    9.4   0.0   ---  0.00   0.0   ---   10.2   10.4   10.4   11.6  1041.2  0.00   0.0   126     5.42    144     0.0  0.00   0.0   0.170   0.000   28.9    32    0.00   702    1    100.0   30 
13/08/19 12:00p   10.8   10.8   10.2    92    9.5   0.0   WSW  0.00   9.7    SW   10.8   10.9   10.9   12.1  1040.9  0.00   0.0   125     5.38    155     0.0  0.00   0.5   0.157   0.000   29.1    30    0.05   701    1    100.0   30 
13/08/19 12:30p   11.3   11.3   10.8    88    9.4   0.0   ---  0.00   0.0   ---   11.3   11.4   11.4   12.9  1040.5  0.00   0.0   147     6.32    165     0.3  0.06   0.5   0.146   0.000   29.2    30    0.00   701    1    100.0   30 
13/08/19  1:00p   11.7   11.7   11.4    84    9.1   0.0   WSW  0.00   1.6   WSW   11.7   11.7   11.7   13.4  1040.3  0.00   0.0   164     7.05    195     0.5  0.11   0.7   0.138   0.000   29.2    29    0.08   700    1    100.0   30 
13/08/19  1:30p   12.3   12.3   11.7    82    9.3   0.0   WSW  0.00   1.6   WSW   12.3   12.2   12.2   14.3  1040.1  0.25   0.0   176     7.57    223     0.5  0.11   0.8   0.125   0.000   28.5    30    0.00   673    1     98.4   30 
13/08/19  2:00p   12.6   12.6   12.3    81    9.4   0.0   ---  0.00   0.0   ---   12.6   12.4   12.4   14.6  1040.1  0.00   0.0   174     7.48    206     0.5  0.11   0.7   0.120   0.000   27.6    33    0.08   700    1    100.0   30 
13/08/19  2:30p   12.5   12.6   12.5    80    9.1   0.0   WSW  0.00  14.5   WSW   12.5   12.3   12.3   13.9  1040.1  0.00   0.0   135     5.81    160     0.0  0.00   0.5   0.122   0.000   27.1    37    0.00   702    1    100.0   30 
13/08/19  3:00p   12.7   12.8   12.5    79    9.2   0.0   WSW  0.00  11.3   WSW   12.7   12.6   12.6   14.8  1040.0  0.00   0.0   159     6.84    197     0.2  0.04   0.5   0.117   0.000   27.1    37    0.08   700    1    100.0   30 
13/08/19  3:30p   12.8   12.8   12.7    79    9.3   0.0   ---  0.00   0.0   ---   12.8   12.7   12.7   14.4  1040.0  0.00   0.0   123     5.29    149     0.0  0.00   0.0   0.115   0.000   27.0    37    0.00   701    1    100.0   30 
13/08/19  4:00p   12.9   12.9   12.8    79    9.4   0.0   ---  0.00   0.0   ---   12.9   12.8   12.8   14.4  1039.9  0.00   0.0   139     5.98    171     0.0  0.00   0.0   0.112   0.000   27.2    36    0.08   702    1    100.0   30 
13/08/19  4:30p   12.8   13.0   12.8    79    9.2   0.0   ---  0.00   0.0   ---   12.8   12.6   12.6   11.3  1040.0  0.00   0.0    45     1.94     81     0.0  0.00   0.0   0.116   0.000   27.1    35    0.00   701    1    100.0   30 
13/08/19  5:00p   12.6   12.8   12.6    80    9.2   0.0   ---  0.00   0.0   ---   12.6   12.4   12.4   10.9  1040.1  0.00   0.0    25     1.08     28     0.0  0.00   0.0   0.119   0.000   26.9    35    0.03   700    1    100.0   30 
13/08/19  5:30p   12.5   12.7   12.5    82    9.5   0.0   ---  0.00   0.0   ---   12.5   12.4   12.4   10.8  1040.4  0.00   0.0    14     0.60     26     0.0  0.00   0.0   0.122   0.000   26.8    36    0.00   702    1    100.0   30 
13/08/19  6:00p   11.8   12.5   11.8    86    9.5   0.0   ---  0.00   0.0   ---   11.8   11.7   11.7    9.9  1040.6  0.00   0.0     0     0.00      5     0.0  0.00   0.0   0.137   0.000   26.7    36    0.00   699    1    100.0   30 
13/08/19  6:30p   11.4   11.8   11.4    88    9.5   0.0   ---  0.00   0.0   ---   11.4   11.5   11.5    9.7  1040.9  0.00   0.0     0     0.00      0     0.0  0.00   0.0   0.144   0.000   26.8    35    0.00   702    1    100.0   30 
13/08/19  7:00p   11.3   11.4   11.2    90    9.7   0.0   ---  0.00   0.0   ---   11.3   11.4   11.4    9.6  1041.1  0.00   0.0     0     0.00      0     0.0  0.00   0.0   0.147   0.000   26.7    35    0.00   700    1    100.0   30 
13/08/19  7:30p   11.2   11.3   11.2    91    9.8   0.0   ---  0.00   0.0   ---   11.2   11.3   11.3    9.5  1041.3  0.00   0.0     0     0.00      0     0.0  0.00   0.0   0.149   0.000   26.5    36    0.00   702    1    100.0   30 
13/08/19  8:00p   10.9   11.2   10.9    91    9.5   0.0   ---  0.00   0.0   ---   10.9   11.0   11.0    9.2  1041.4  0.00   0.0     0     0.00      0     0.0  0.00   0.0   0.155   0.000   26.2    36    0.00   703    1    100.0   30 
13/08/19  8:30p   10.3   10.9   10.3    91    8.9   0.0   ---  0.00   0.0   ---   10.3   10.5   10.5    8.7  1041.5  0.00   0.0     0     0.00      0     0.0  0.00   0.0   0.167   0.000   26.3    36    0.00   701    1    100.0   30 
13/08/19  9:00p    9.9   10.3    9.9    92    8.6   0.0   ---  0.00   0.0   ---    9.9   10.1   10.1    8.3  1041.7  0.00   0.0     0     0.00      0     0.0  0.00   0.0   0.176   0.000   26.7    36    0.00   702    1    100.0   30 
13/08/19  9:30p    9.8    9.9    9.8    93    8.8   0.0   ---  0.00   0.0   ---    9.8   10.1   10.1    8.2  1041.7  0.00   0.0     0     0.00      0     0.0  0.00   0.0   0.177   0.000   26.8    36    0.00   659    1     96.3   30 
13/08/19 10:00p    9.9   10.0    9.8    94    9.0   0.0   ---  0.00   0.0   ---    9.9   10.2   10.2    8.4  1041.7  0.00   0.0     0     0.00      0     0.0  0.00   0.0   0.175   0.000   26.8    35    0.00   702    1    100.0   30 
13/08/19 10:30p    9.9   10.0    9.9    94    9.0   0.0   ---  0.00   0.0   ---    9.9   10.2   10.2    8.4  1041.5  0.00   0.0     0     0.00      0     0.0  0.00   0.0   0.175   0.000   26.8    35    0.00   697    1    100.0   30 
13/08/19 11:00p    9.9    9.9    9.8    94    9.0   0.0   ---  0.00   0.0   ---    9.9   10.2   10.2    8.3  1041.6  0.00   0.0     0     0.00      0     0.0  0.00   0.0   0.176   0.000   26.8    35    0.00   702    1    100.0   30 
13/08/19 11:30p    9.8    9.9    9.8    94    8.9   0.0   ---  0.00   0.0   ---    9.8   10.1   10.1    8.3  1041.7  0.00   0.0     0     0.00      0     0.0  0.00   0.0   0.177   0.000   26.8    35    0.00   700    1    100.0   30 
14/08/19 12:00a    9.8    9.8    9.8    95    9.0   0.0   ---  0.00   0.0   ---    9.8   10.1   10.1    8.2  1041.7  0.00   0.0     0     0.00      0     0.0  0.00   0.0   0.178   0.000   26.7    35    0.00   700    1    100.0   30 
14/08/19 12:30a    9.8    9.8    9.8    95    9.1   0.0   ---  0.00   0.0   ---    9.8   10.1   10.1    8.3  1041.7  0.00   0.0     0     0.00      0     0.0  0.00   0.0   0.177   0.000   26.7    35    0.00   700    1    100.0   30 
14/08/19  1:00a    9.8    9.8    9.7    95    9.0   0.0   ---  0.00   0.0   ---    9.8   10.1   10.1    8.2  1041.6  0.00   0.0     0     0.00      0     0.0  0.00   0.0   0.178   0.000   26.6    35    0.00   701    1    100.0   30 
14/08/19  1:30a    9.7    9.8    9.7    95    9.0   0.0   ---  0.00   0.0   ---    9.7   10.0   10.0    8.2  1041.5  0.00   0.0     0     0.00      0     0.0  0.00   0.0   0.179   0.000   26.5    35    0.00   702    1    100.0   30 
14/08/19  2:00a    9.6    9.7    9.6    95    8.8   0.0   ---  0.00   0.0   ---    9.6    9.8    9.8    8.0  1041.2  0.00   0.0     0     0.00      0     0.0  0.00   0.0   0.183   0.000   26.4    35    0.00   700    1    100.0   30 
14/08/19  2:30a    9.3    9.6    9.3    95    8.6   0.0   ---  0.00   0.0   ---    9.3    9.6    9.6    7.8  1041.0  0.00   0.0     0     0.00      0     0.0  0.00   0.0   0.188   0.000   26.4    35    0.00   699    1    100.0   30 
14/08/19  3:00a    9.1    9.3    9.1    95    8.4   0.0   ---  0.00   0.0   ---    9.1    9.3    9.3    7.5  1041.0  0.00   0.0     0     0.00      0     0.0  0.00   0.0   0.192   0.000   26.3    35    0.00   702    1    100.0   30 
14/08/19  3:30a    9.1    9.2    9.1    95    8.4   0.0   ---  0.00   0.0   ---    9.1    9.3    9.3    7.5  1040.8  0.00   0.0     0     0.00      0     0.0  0.00   0.0   0.192   0.000   26.2    35    0.00   702    1    100.0   30 
14/08/19  4:00a    9.1    9.1    9.0    96    8.5   0.0   ---  0.00   0.0   ---    9.1    9.3    9.3    7.5  1040.8  0.00   0.0     0     0.00      0     0.0  0.00   0.0   0.193   0.000   26.2    35    0.00   702    1    100.0   30 
14/08/19  4:30a    8.8    9.1    8.8    95    8.1   0.0   ---  0.00   0.0   ---    8.8    9.1    9.1    7.2  1040.7  0.00   0.0     0     0.00      0     0.0  0.00   0.0   0.198   0.000   26.1    35    0.00   701    1    100.0   30 
14/08/19  5:00a    8.7    8.8    8.7    95    7.9   0.0   ---  0.00   0.0   ---    8.7    8.9    8.9    7.0  1041.0  0.00   0.0     0     0.00      0     0.0  0.00   0.0   0.201   0.000   26.0    35    0.00   703    1    100.0   30 
14/08/19  5:30a    8.7    8.8    8.7    96    8.1   0.0   ---  0.00   0.0   ---    8.7    8.9    8.9    7.0  1041.1  0.00   0.0     0     0.00      0     0.0  0.00   0.0   0.201   0.000   25.9    35    0.00   700    1    100.0   30 
14/08/19  6:00a    8.7    8.7    8.7    96    8.1   0.0   ---  0.00   0.0   ---    8.7    8.9    8.9    7.0  1041.4  0.00   0.0     0     0.00      0     0.0  0.00   0.0   0.201   0.000   25.9    35    0.00   700    1    100.0   30 
14/08/19  6:30a    8.5    8.7    8.5    96    7.9   0.0   ---  0.00   0.0   ---    8.5    8.7    8.7    6.8  1041.5  0.00   0.0     0     0.00      0     0.0  0.00   0.0   0.205   0.000   25.8    35    0.00   699    1    100.0   30 
14/08/19  7:00a    8.5    8.5    8.5    96    7.9   0.0   ---  0.00   0.0   ---    8.5    8.7    8.7    6.8  1041.6  0.00   0.0     0     0.00      0     0.0  0.00   0.0   0.205   0.000   25.7    35    0.00   702    1    100.0   30 
14/08/19  7:30a    8.7    8.7    8.5    96    8.1   0.0   ---  0.00   0.0   ---    8.7    8.9    8.9    7.1  1041.8  0.00   0.0     5     0.22     14     0.0  0.00   0.0   0.201   0.000   26.3    34    0.00   673    1     98.4   30 
14/08/19  8:00a    8.9    8.9    8.7    96    8.3   0.0   ---  0.00   0.0   ---    8.9    9.2    9.2    7.7  1041.6  0.00   0.0    34     1.46     46     0.0  0.00   0.0   0.196   0.000   26.7    33    0.00   700    1    100.0   30 
14/08/19  8:30a    9.4    9.4    8.9    97    8.9   0.0   ---  0.00   0.0   ---    9.4    9.7    9.7   10.6  1041.6  0.00   0.0    84     3.61    156     0.0  0.00   0.0   0.186   0.000   27.0    33    0.00   699    1    100.0   30 
14/08/19  9:00a   10.1   10.1    9.4    97    9.7   0.0   ---  0.00   0.0   ---   10.1   10.4   10.4   12.3  1041.5  0.00   0.0   132     5.68    176     0.0  0.00   0.0   0.171   0.000   27.1    35    0.05   700    1    100.0   30 
14/08/19  9:30a   10.3   10.3   10.1    96    9.7   0.0   ---  0.00   0.0   ---   10.3   10.6   10.6   12.7  1041.2  0.00   0.0   146     6.28    207     0.0  0.00   0.0   0.167   0.000   27.3    36    0.00   702    1    100.0   30 
14/08/19 10:00a   11.1   11.1   10.3    96   10.4   0.0   ---  0.00   0.0   ---   11.1   11.3   11.3   14.7  1041.4  0.00   0.0   229     9.85    292     0.5  0.11   0.6   0.152   0.000   27.8    35    0.08   700    1    100.0   30 
14/08/19 10:30a   11.9   11.9   11.1    90   10.4   0.0   WSW  0.00   1.6   WSW   11.9   12.0   12.0   15.7  1041.2  0.00   0.0   261    11.22    401     0.7  0.15   0.9   0.133   0.000   28.3    36    0.00   701    1    100.0   30 
14/08/19 11:00a   12.7   12.7   11.9    79    9.1   1.6     N  0.80  25.7     N   12.7   12.5   12.5   16.1  1041.0  0.00   0.0   274    11.78    301     1.0  0.21   1.1   0.118   0.000   28.7    34    0.13   701    1    100.0   30 
14/08/19 11:30a   13.2   13.3   12.7    73    8.5   1.6     N  0.80  40.2   NNE   13.2   12.8   12.8   17.1  1040.5  0.00   0.0   328    14.11    601     1.1  0.24   1.7   0.106   0.000   29.2    33    0.00   702    1    100.0   30 
14/08/19 12:00p   13.3   13.6   13.2    70    8.0   4.8     N  2.41  27.4     N   13.3   12.9   12.8   16.7  1040.0  0.00   0.0   309    13.29    504     1.3  0.28   1.8   0.104   0.000   29.4    33    0.18   701    1    100.0   30 
14/08/19 12:30p   13.2   13.5   13.2    70    7.8   3.2   NNW  1.61  27.4   NNW   13.2   12.7   12.7   15.7  1039.5  0.00   0.0   244    10.49    295     0.9  0.19   1.1   0.108   0.000   29.4    31    0.00   701    1    100.0   30 
14/08/19  1:00p   13.2   13.2   12.9    68    7.4  11.3     N  5.63  33.8   NNE   12.3   12.7   11.6   15.2  1039.0  0.00   0.0   291    12.51    420     1.1  0.24   1.5   0.108   0.000   29.6    30    0.15   701    1    100.0   30 
14/08/19  1:30p   13.3   13.4   13.2    66    7.1   8.0     N  4.02  33.8     N   12.8   12.7   12.1   15.8  1038.5  0.00   0.0   281    12.08    374     1.1  0.24   1.5   0.105   0.000   28.9    30    0.00   702    1    100.0   30 
14/08/19  2:00p   13.2   13.5   13.2    65    6.8   8.0     N  4.02  37.0   NNE   12.8   12.7   12.0   15.6  1038.3  0.00   0.0   268    11.53    329     0.9  0.19   1.1   0.106   0.000   28.1    32    0.18   668    1     97.7   30 
14/08/19  2:30p   13.0   13.2   13.0    65    6.6   8.0   NNE  4.02  37.0    NE   12.6   12.4   11.8   14.6  1038.2  0.00   0.0   203     8.73    257     0.6  0.13   0.8   0.111   0.000   27.4    33    0.00   702    1    100.0   30 
14/08/19  3:00p   12.9   13.0   12.9    65    6.5   8.0     N  4.02  37.0     N   12.4   12.4   11.7   14.1  1038.2  0.00   0.0   165     7.10    206     0.2  0.04   0.6   0.112   0.000   27.2    34    0.13   702    1    100.0   30 
14/08/19  3:30p   12.7   12.9   12.7    64    6.0   6.4     N  3.22  30.6   NNE   12.4   12.1   11.7   12.7  1038.3  0.00   0.0    95     4.09    123     0.0  0.00   0.0   0.118   0.000   27.1    34    0.00   700    1    100.0   30 
14/08/19  4:00p   12.8   12.8   12.7    61    5.4   6.4   NNW  3.22  32.2    NE   12.6   12.1   11.7   13.1  1038.4  0.00   0.0   115     4.95    128     0.0  0.00   0.0   0.116   0.000   27.0    33    0.08   702    1    100.0   30 
14/08/19  4:30p   12.7   12.8   12.7    63    5.8   3.2   NNW  1.61  25.7     N   12.7   12.1   12.1   11.4  1038.3  0.00   0.0    98     4.21    116     0.0  0.00   0.0   0.118   0.000   26.9    32    0.00   700    1    100.0   30 
14/08/19  5:00p   12.3   12.7   12.3    64    5.7   4.8     N  2.41  43.5    NE   12.3   11.7   11.6   10.3  1038.3  0.00   0.0    47     2.02     83     0.0  0.00   0.0   0.126   0.000   27.0    32    0.05   701    1    100.0   30 
14/08/19  5:30p   12.0   12.3   12.0    66    5.8   1.6     N  0.80  27.4     N   12.0   11.5   11.5    9.8  1038.5  0.00   0.0    18     0.77     28     0.0  0.00   0.0   0.132   0.000   26.8    31    0.00   702    1    100.0   30 
14/08/19  6:00p   11.7   12.0   11.6    66    5.5   1.6     N  0.80  22.5     N   11.7   11.2   11.2    9.3  1038.5  0.00   0.0     1     0.04      5     0.0  0.00   0.0   0.139   0.000   26.7    32    0.03   702    1    100.0   30 
14/08/19  6:30p   11.0   11.7   11.0    68    5.3   0.0     N  0.00  11.3     N   11.0   10.6   10.6    8.7  1038.5  0.00   0.0     0     0.00      0     0.0  0.00   0.0   0.153   0.000   26.5    31    0.00   701    1    100.0   30 
14/08/19  7:00p   10.1   11.0   10.1    72    5.3   0.0   ---  0.00   0.0   ---   10.1    9.9    9.9    8.1  1038.6  0.00   0.0     0     0.00      0     0.0  0.00   0.0   0.171   0.000   26.0    31    0.03   677    1     99.0   30 
14/08/19  7:30p    9.4   10.1    9.4    75    5.2   0.0   ---  0.00   0.0   ---    9.4    9.3    9.3    7.4  1038.6  0.00   0.0     0     0.00      0     0.0  0.00   0.0   0.185   0.000   25.6    31    0.00   682    1     99.7   30 
14/08/19  8:00p    8.4    9.4    8.4    79    5.0   0.0   ---  0.00   0.0   ---    8.4    8.3    8.3    6.4  1038.5  0.00   0.0     0     0.00      0     0.0  0.00   0.0   0.206   0.000   25.6    31    0.03   700    1    100.0   30 
14/08/19  8:30p    7.8    8.4    7.8    81    4.7   0.0   ---  0.00   0.0   ---    7.8    7.7    7.7    5.7  1038.6  0.00   0.0     0     0.00      0     0.0  0.00   0.0   0.220   0.000   26.0    31    0.00   703    1    100.0   30 
14/08/19  9:00p    6.8    7.8    6.8    83    4.1   0.0   ---  0.00   0.0   ---    6.8    6.7    6.7    4.8  1038.5  0.00   0.0     0     0.00      0     0.0  0.00   0.0   0.241   0.000   26.2    31    0.00   679    1     99.3   30 
14/08/19  9:30p    5.7    6.8    5.7    86    3.6   0.0   ---  0.00   0.0   ---    5.7    5.7    5.7    3.7  1038.5  0.00   0.0     0     0.00      0     0.0  0.00   0.0   0.263   0.000   26.2    31    0.00   701    1    100.0   30 
14/08/19 10:00p    4.9    5.7    4.9    89    3.3   0.0   ---  0.00   0.0   ---    4.9    4.9    4.9    2.9  1038.6  0.00   0.0     0     0.00      0     0.0  0.00   0.0   0.279   0.000   26.1    31    0.00   701    1    100.0   30 
14/08/19 10:30p    4.5    4.9    4.5    90    3.0   0.0   ---  0.00   0.0   ---    4.5    4.4    4.4    2.4  1038.6  0.00   0.0     0     0.00      0     0.0  0.00   0.0   0.288   0.000   25.9    31    0.00   702    1    100.0   30 
14/08/19 11:00p    4.2    4.5    4.2    91    2.8   0.0   ---  0.00   0.0   ---    4.2    4.1    4.1    2.1  1038.4  0.00   0.0     0     0.00      0     0.0  0.00   0.0   0.295   0.000   25.7    31    0.00   697    1    100.0   30 
14/08/19 11:30p    3.5    4.2    3.5    92    2.3   0.0   ---  0.00   0.0   ---    3.5    3.4    3.4    1.4  1038.2  0.00   0.0     0     0.00      0     0.0  0.00   0.0   0.309   0.000   25.5    30    0.00   702    1    100.0   30 
15/08/19 12:00a    3.1    3.5    3.1    92    1.9   0.0   ---  0.00   0.0   ---    3.1    3.1    3.1    1.1  1038.0  0.00   0.0     0     0.00      0     0.0  0.00   0.0   0.317   0.000   25.4    30    0.00   680    1     99.4   30 
15/08/19 12:30a    2.6    3.1    2.6    93    1.6   0.0   ---  0.00   0.0   ---    2.6    2.6    2.6    0.6  1038.0  0.00   0.0     0     0.00      0     0.0  0.00   0.0   0.328   0.000   25.2    30    0.00   674    1     98.5   30 
15/08/19  1:00a    2.4    2.7    2.3    93    1.4   0.0   ---  0.00   0.0   ---    2.4    2.4    2.4    0.3  1038.1  0.00   0.0     0     0.00      0     0.0  0.00   0.0   0.332   0.000   25.0    30    0.00   701    1    100.0   30 
15/08/19  1:30a    2.1    2.4    2.1    93    1.1   0.0   ---  0.00   0.0   ---    2.1    2.1    2.1    0.1  1038.0  0.00   0.0     0     0.00      0     0.0  0.00   0.0   0.338   0.000   24.8    30    0.00   699    1    100.0   30 
15/08/19  2:00a    1.8    2.1    1.8    94    1.0   0.0   ---  0.00   0.0   ---    1.8    1.8    1.8   -0.2  1037.7  0.00   0.0     0     0.00      0     0.0  0.00   0.0   0.344   0.000   24.6    30    0.00   702    1    100.0   30 
15/08/19  2:30a    1.6    1.8    1.6    94    0.7   0.0   ---  0.00   0.0   ---    1.6    1.6    1.6   -0.4  1037.9  0.00   0.0     0     0.00      0     0.0  0.00   0.0   0.348   0.000   24.4    30    0.00   701    1    100.0   30 
15/08/19  3:00a    1.4    1.6    1.4    94    0.6   0.0   ---  0.00   0.0   ---    1.4    1.4    1.4   -0.7  1037.8  0.00   0.0     0     0.00      0     0.0  0.00   0.0   0.352   0.000   24.2    30    0.00   699    1    100.0   30 
15/08/19  3:30a    1.2    1.4    1.2    94    0.4   0.0   ---  0.00   0.0   ---    1.2    1.2    1.2   -0.9  1037.3  0.00   0.0     0     0.00      0     0.0  0.00   0.0   0.356   0.000   24.0    30    0.00   702    1    100.0   30 
15/08/19  4:00a    1.1    1.2    1.1    94    0.2   0.0   ---  0.00   0.0   ---    1.1    1.0    1.0   -1.1  1037.1  0.00   0.0     0     0.00      0     0.0  0.00   0.0   0.360   0.000   23.9    30    0.00   674    1     98.5   30 
15/08/19  4:30a    0.8    1.1    0.8    95    0.1   0.0   ---  0.00   0.0   ---    0.8    0.8    0.8   -1.3  1036.9  0.00   0.0     0     0.00      0     0.0  0.00   0.0   0.365   0.000   23.7    29    0.00   701    1    100.0   30 
15/08/19  5:00a    0.6    0.8    0.6    95   -0.1   0.0   ---  0.00   0.0   ---    0.6    0.6    0.6   -1.6  1036.8  0.00   0.0     0     0.00      0     0.0  0.00   0.0   0.369   0.000   23.6    29    0.00   701    1    100.0   30 
15/08/19  5:30a    0.7    0.7    0.6    95   -0.0   0.0   ---  0.00   0.0   ---    0.7    0.6    0.6   -1.5  1036.6  0.00   0.0     0     0.00      0     0.0  0.00   0.0   0.368   0.000   23.4    29    0.00   701    1    100.0   30 
15/08/19  6:00a    2.9    2.9    0.7    97    2.5   0.0   ---  0.00   0.0   ---    2.9    2.9    2.9    0.9  1036.2  0.00   0.0     0     0.00      0     0.0  0.00   0.0   0.322   0.000   23.3    29    0.00   699    1    100.0   30 
15/08/19  6:30a    4.3    4.3    2.9    96    3.7   0.0   ---  0.00   0.0   ---    4.3    4.3    4.3    2.4  1036.0  0.00   0.0     0     0.00      0     0.0  0.00   0.0   0.293   0.000   23.2    29    0.00   701    1    100.0   30 
15/08/19  7:00a    4.4    4.5    4.3    94    3.6   0.0   ---  0.00   0.0   ---    4.4    4.5    4.5    2.6  1036.3  0.00   0.0     0     0.00      0     0.0  0.00   0.0   0.289   0.000   23.2    29    0.00   703    1    100.0   30 
15/08/19  7:30a    3.9    4.5    3.8    92    2.7   0.0   ---  0.00   0.0   ---    3.9    3.8    3.8    2.0  1036.2  0.00   0.0    12     0.52     25     0.0  0.00   0.0   0.301   0.000   23.1    29    0.00   702    1    100.0   30 
15/08/19  8:00a    7.1    7.1    3.9    87    5.1   0.0     N  0.00   6.4     N    7.1    7.1    7.1    5.9  1035.9  0.00   0.0    61     2.62    100     0.0  0.00   0.0   0.234   0.000   23.2    29    0.03   703    1    100.0   30 
15/08/19  8:30a    8.8    8.8    7.1    78    5.2   0.0   ---  0.00   0.0   ---    8.8    8.7    8.7   10.4  1036.0  0.00   0.0   149     6.41    200     0.0  0.00   0.0   0.198   0.000   24.4    28    0.00   701    1    100.0   30 
15/08/19  9:00a   11.8   11.8    8.8    65    5.5   0.0     N  0.00   3.2     N   11.8   11.3   11.3   15.2  1035.9  0.00   0.0   264    11.35    330     0.0  0.00   0.5   0.135   0.000   25.1    29    0.10   673    1     98.4   30 
15/08/19  9:30a   13.3   13.3   11.8    56    4.7   1.6     N  0.80  20.9     N   13.3   12.4   12.4   16.4  1036.3  0.00   0.0   288    12.39    359     0.5  0.11   0.7   0.105   0.000   26.1    30    0.00   700    1    100.0   30 
15/08/19 10:00a   13.4   13.5   13.3    53    4.0   8.0   NNE  4.02  59.5    NE   13.0   12.4   11.8   16.1  1036.4  0.00   0.0   308    13.25    411     0.8  0.17   1.0   0.103   0.000   26.7    30    0.00   698    1    100.0   30 
15/08/19 10:30a   13.7   13.7   13.4    51    3.7   6.4   NNE  3.22  37.0    NE   13.6   12.7   12.3   16.1  1036.1  0.00   0.0   288    12.39    339     0.9  0.19   1.1   0.097   0.000   27.0    29    0.18   679    1     99.3   30 
15/08/19 11:00a   14.2   14.2   13.7    51    4.2  12.9     N  6.44  45.1   ENE   13.3   13.1   11.8   16.3  1035.9  0.00   0.0   398    17.12    621     1.3  0.28   1.7   0.087   0.000   27.1    28    0.23   698    1    100.0   30 
15/08/19 11:30a   14.4   14.8   14.2    51    4.4  14.5   NNE  7.24  43.5    NE   13.4   13.3   11.8   16.6  1035.9  0.00   0.0   507    21.80    708     1.7  0.36   2.0   0.082   0.000   27.6    28    0.00   703    1    100.0   30 
15/08/19 12:00p   14.3   14.5   14.2    53    4.9  12.9     N  6.44  49.9    NE   13.5   13.3   12.0   17.8  1035.3  0.00   0.0   582    25.03    642     2.1  0.45   2.2   0.083   0.000   28.4    28    0.36   701    1    100.0   30 
15/08/19 12:30p   14.7   14.9   14.4    53    5.2  11.3   NNW  5.63  43.5   NNE   14.1   13.7   12.8   19.2  1034.8  0.00   0.0   609    26.19    654     2.2  0.47   2.3   0.076   0.000   28.7    29    0.00   700    1    100.0   30 
15/08/19  1:00p   15.1   15.1   14.7    53    5.5  16.1   NNE  8.05  49.9   NNE   14.1   14.1   12.4   17.3  1033.6  0.00   0.0   534    22.96    759     2.0  0.43   2.4   0.068   0.000   28.8    27    0.36   699    1    100.0   30 
15/08/19  1:30p   15.3   15.7   15.1    52    5.5  16.1   NNE  8.05  57.9    NE   14.4   14.3   12.7   18.1  1033.1  0.00   0.0   539    23.18    717     2.0  0.43   2.4   0.063   0.000   28.2    28    0.00   702    1    100.0   30 
15/08/19  2:00p   16.3   16.6   15.3    48    5.2  12.9   NNE  6.44  46.7    NE   15.8   15.1   14.0   21.2  1032.9  0.00   0.0   595    25.59    749     1.9  0.41   2.2   0.043   0.000   27.6    28    0.38   701    1    100.0   30 
15/08/19  2:30p   15.3   16.2   15.3    50    5.0  11.3     N  5.63  53.1     N   14.9   14.2   13.4   16.1  1032.6  0.00   0.0   205     8.82    267     0.9  0.19   1.1   0.063   0.000   27.1    28    0.00   702    1    100.0   30 
15/08/19  3:00p   15.4   15.6   15.3    50    5.1   4.8     N  2.41  40.2    NE   15.4   14.3   14.3   17.2  1032.6  0.00   0.0   199     8.56    255     0.6  0.13   0.8   0.060   0.000   27.0    28    0.15   700    1    100.0   30 
15/08/19  3:30p   15.1   15.4   15.1    52    5.3   6.4     N  3.22  37.0   NNE   15.1   14.1   13.9   15.3  1032.7  0.00   0.0   114     4.90    148     0.1  0.02   0.5   0.067   0.000   27.0    29    0.00   701    1    100.0   30 
15/08/19  4:00p   15.1   15.1   14.9    52    5.3   6.4   NNE  3.22  38.6    NE   15.1   14.1   13.8   14.5  1032.4  0.00   0.0    77     3.31     90     0.0  0.00   0.0   0.068   0.000   27.0    28    0.10   701    1    100.0   30 
15/08/19  4:30p   14.4   15.1   14.4    59    6.5   1.6     N  0.80  27.4   NNE   14.4   13.6   13.6   12.6  1032.4  0.00   0.0    49     2.11     74     0.0  0.00   0.0   0.082   0.000   26.9    28    0.00   701    1    100.0   30 
15/08/19  5:00p   14.1   14.4   14.1    61    6.6   1.6   NNE  0.80  30.6   NNE   14.1   13.4   13.4   11.9  1032.5  0.00   0.0    16     0.69     21     0.0  0.00   0.0   0.089   0.000   26.7    28    0.03   699    1    100.0   30 
15/08/19  5:30p   13.9   14.1   13.9    62    6.8   0.0     N  0.00  19.3   NNW   13.9   13.3   13.3   11.7  1032.6  0.00   0.0     5     0.22     11     0.0  0.00   0.0   0.091   0.000   26.7    29    0.00   701    1    100.0   30 
15/08/19  6:00p   13.9   14.0   13.9    64    7.2   1.6     N  0.80  24.1     N   13.9   13.3   13.3   11.6  1032.7  0.00   0.0     0     0.00      0     0.0  0.00   0.0   0.093   0.000   26.8    29    0.00   699    1    100.0   30 
15/08/19  6:30p   13.9   13.9   13.9    64    7.2   1.6     N  0.80  22.5     N   13.9   13.3   13.3   11.7  1032.3  0.00   0.0     0     0.00      0     0.0  0.00   0.0   0.091   0.000   26.7    29    0.00   703    1    100.0   30 
15/08/19  7:00p   14.0   14.0   13.9    65    7.5   3.2     N  1.61  25.7     N   14.0   13.4   13.4   11.8  1032.3  0.00   0.0     0     0.00      0     0.0  0.00   0.0   0.090   0.000   26.6    29    0.03   699    1    100.0   30 
15/08/19  7:30p   14.3   14.3   14.0    63    7.4   3.2     N  1.61  30.6     N   14.3   13.7   13.7   12.1  1032.3  0.00   0.0     0     0.00      0     0.0  0.00   0.0   0.083   0.000   26.1    29    0.00   699    1    100.0   30 
15/08/19  8:00p   14.4   14.4   14.3    64    7.7   4.8     N  2.41  27.4     N   14.4   13.8   13.8   12.1  1032.4  0.00   0.0     0     0.00      0     0.0  0.00   0.0   0.081   0.000   25.9    30    0.05   702    1    100.0   30 
15/08/19  8:30p   14.2   14.4   14.2    65    7.7   4.8     N  2.41  29.0     N   14.2   13.6   13.6   11.9  1032.4  0.00   0.0     0     0.00      0     0.0  0.00   0.0   0.087   0.000   26.2    30    0.00   702    1    100.0   30 
15/08/19  9:00p   13.9   14.2   13.9    67    7.9  11.3   NNE  5.63  45.1   NNE   13.1   13.4   12.4   10.8  1031.9  0.00   0.0     0     0.00      0     0.0  0.00   0.0   0.093   0.000   26.6    30    0.05   701    1    100.0   30 
15/08/19  9:30p   14.1   14.1   13.9    65    7.6  14.5   NNE  7.24  38.6     N   13.0   13.5   11.9   10.4  1031.5  0.00   0.0     0     0.00      0     0.0  0.00   0.0   0.089   0.000   26.8    30    0.00   699    1    100.0   30 
15/08/19 10:00p   14.1   14.1   14.0    63    7.2  11.3   NNE  5.63  33.8   NNE   13.4   13.5   12.5   10.9  1030.9  0.00   0.0     0     0.00      0     0.0  0.00   0.0   0.088   0.000   26.9    30    0.08   702    1    100.0   30 
15/08/19 10:30p   14.4   14.4   14.1    60    6.8  11.3   NNE  5.63  46.7    NE   13.8   13.7   12.8   11.2  1030.3  0.00   0.0     0     0.00      0     0.0  0.00   0.0   0.081   0.000   26.7    30    0.00   702    1    100.0   30 
15/08/19 11:00p   14.7   14.7   14.4    56    6.0  16.1   NNE  8.05  46.7    NE   13.7   13.9   12.2   10.7  1029.7  0.00   0.0     0     0.00      0     0.0  0.00   0.0   0.075   0.000   26.8    30    0.08   678    1     99.1   30 
15/08/19 11:30p   14.9   15.1   14.7    54    5.7  16.1   NNE  8.05  62.8    NE   13.9   14.0   12.3   10.8  1029.5  0.00   0.0     0     0.00      0     0.0  0.00   0.0   0.071   0.000   26.8    30    0.00   700    1    100.0   30 
16/08/19 12:00a   14.7   14.9   14.7    54    5.5  14.5   NNE  7.24  53.1    NE   13.8   13.8   12.2   10.7  1030.0  0.00   0.0     0     0.00      0     0.0  0.00   0.0   0.075   0.000   26.8    29    0.10   701    1    100.0   30 
16/08/19 12:30a   14.2   14.7   14.2    57    5.8   4.8     N  2.41  40.2   NNE   14.2   13.4   13.3   11.6  1029.4  0.00   0.0     0     0.00      0     0.0  0.00   0.0   0.086   0.000   26.8    29    0.00   675    1     98.7   30 
16/08/19  1:00a   14.0   14.2   14.0    57    5.6   9.7   NNE  4.83  41.8   NNE   13.4   13.2   12.5   10.7  1029.3  0.00   0.0     0     0.00      0     0.0  0.00   0.0   0.090   0.000   26.8    29    0.05   702    1    100.0   30 
16/08/19  1:30a   13.9   14.1   13.9    56    5.3   3.2     N  1.61  32.2    NE   13.9   13.1   13.1   11.4  1028.6  0.00   0.0     0     0.00      0     0.0  0.00   0.0   0.091   0.000   26.8    29    0.00   702    1    100.0   30 
16/08/19  2:00a   14.1   14.2   13.9    55    5.1   9.7   NNE  4.83  41.8     N   13.6   13.2   12.5   10.7  1027.8  0.00   0.0     0     0.00      0     0.0  0.00   0.0   0.089   0.000   26.7    29    0.00   678    1     99.1   30 
16/08/19  2:30a   14.0   14.1   13.9    54    4.8   3.2   NNE  1.61  32.2   NNE   14.0   13.1   13.1   11.3  1028.3  0.00   0.0     0     0.00      0     0.0  0.00   0.0   0.090   0.000   26.7    29    0.05   702    1    100.0   30 
16/08/19  3:00a   14.2   14.2   13.9    51    4.2   6.4   NNE  3.22  37.0    NE   14.2   13.2   12.9   11.1  1027.6  0.00   0.0     0     0.00      0     0.0  0.00   0.0   0.086   0.000   26.6    29    0.05   699    1    100.0   30 
16/08/19  3:30a   14.3   14.5   14.2    51    4.3   9.7   NNE  4.83  49.9    NE   13.8   13.2   12.5   10.7  1027.8  0.00   0.0     0     0.00      0     0.0  0.00   0.0   0.084   0.000   26.6    29    0.00   658    1     96.2   30 
16/08/19  4:00a   13.9   14.3   13.9    52    4.2  11.3   NNE  5.63  43.5    NE   13.1   12.9   11.9   10.1  1027.5  0.00   0.0     0     0.00      0     0.0  0.00   0.0   0.093   0.000   26.5    29    0.08   700    1    100.0   30 
16/08/19  4:30a   13.7   13.9   13.7    53    4.3  12.9   NNE  6.44  53.1    NE   12.7   12.8   11.4    9.7  1027.4  0.00   0.0     0     0.00      0     0.0  0.00   0.0   0.096   0.000   26.5    28    0.00   699    1    100.0   30 
16/08/19  5:00a   13.5   13.7   13.5    53    4.1  11.3   NNE  5.63  48.3   NNE   12.7   12.6   11.5    9.8  1027.5  0.00   0.0     0     0.00      0     0.0  0.00   0.0   0.101   0.000   26.5    28    0.08   700    1    100.0   30 
16/08/19  5:30a   13.6   13.6   13.5    53    4.1   9.7   NNE  4.83  49.9    NE   12.9   12.6   11.9   10.1  1027.7  0.00   0.0     0     0.00      0     0.0  0.00   0.0   0.100   0.000   26.4    28    0.00   702    1    100.0   30 
16/08/19  6:00a   13.6   13.6   13.5    52    3.9   6.4     N  3.22  35.4    NE   13.5   12.6   12.2   10.4  1027.1  0.00   0.0     0     0.00      0     0.0  0.00   0.0   0.100   0.000   26.4    28    0.08   699    1    100.0   30 
16/08/19  6:30a   13.6   13.6   13.6    51    3.6   8.0   NNE  4.02  33.8    NE   13.2   12.6   12.0   10.1  1026.7  0.00   0.0     0     0.00      0     0.0  0.00   0.0   0.100   0.000   26.4    28    0.00   701    1    100.0   30 
16/08/19  7:00a   13.5   13.6   13.5    51    3.6   6.4     N  3.22  38.6   NNE   13.4   12.5   12.2   10.3  1026.7  0.00   0.0     0     0.00      0     0.0  0.00   0.0   0.101   0.000   26.3    28    0.08   702    1    100.0   30 
16/08/19  7:30a   13.4   13.5   13.4    51    3.5   6.4     N  3.22  33.8   NNE   13.3   12.4   12.1   10.3  1026.6  0.00   0.0     1     0.04      7     0.0  0.00   0.0   0.102   0.000   26.6    26    0.00   676    1     98.8   30 
16/08/19  8:00a   13.1   13.7   13.1    58    5.0   4.8   NNE  2.41  30.6    NE   13.1   12.3   12.2   10.4  1027.5  0.25   0.0     4     0.17      9     0.0  0.00   0.0   0.110   0.000   26.9    26    0.05   702    1    100.0   30 
16/08/19  8:30a   12.5   13.0   12.3    57    4.2  12.9   NNE  6.44  56.3    NE   11.2   11.7   10.2    9.6  1026.1  0.00   0.0    23     0.99     39     0.0  0.00   0.0   0.122   0.000   27.2    26    0.00   703    1    100.0   30 
16/08/19  9:00a   12.8   12.8   12.5    55    4.0  12.9   NNE  6.44  49.9   NNE   11.7   12.0   10.6   10.2  1025.9  0.00   0.0    35     1.51     54     0.0  0.00   0.0   0.115   0.000   27.6    27    0.08   701    1    100.0   30 
16/08/19  9:30a   12.7   12.9   12.7    57    4.4  14.5   NNE  7.24  53.1    NE   11.3   11.9   10.2    9.9  1025.7  0.00   0.0    49     2.11     74     0.0  0.00   0.0   0.118   0.000   27.9    28    0.00   699    1    100.0   30 
16/08/19 10:00a   12.9   13.0   12.7    55    4.1  12.9     N  6.44  67.6    NE   11.7   12.1   10.6   10.5  1026.3  0.00   0.0    57     2.45     88     0.0  0.00   0.0   0.113   0.000   28.4    28    0.10   669    1     97.8   30 
16/08/19 10:30a   12.6   12.9   12.5    59    4.8  14.5     N  7.24  56.3     N   11.1   11.8   10.1   11.1  1026.3  0.25   0.0   121     5.20    176     0.3  0.06   1.4   0.120   0.000   28.7    27    0.00   702    1    100.0   30 
16/08/19 11:00a   13.2   13.2   12.6    56    4.6  12.9   NNE  6.44  62.8   NNE   12.1   12.3   10.9   12.2  1025.7  0.00   0.0   145     6.24    526     0.8  0.17   1.7   0.108   0.000   28.8    26    0.15   700    1    100.0   30 
16/08/19 11:30a   14.4   14.4   13.2    52    4.6  11.3   NNE  5.63  49.9    NE   13.7   13.4   12.5   17.8  1025.3  0.00   0.0   520    22.36    663     1.7  0.36   2.1   0.082   0.000   28.9    26    0.00   702    1    100.0   30 
16/08/19 12:00p   15.5   15.5   14.4    49    4.8  11.3   NNE  5.63  40.2     N   15.1   14.3   13.5   19.5  1025.4  0.00   0.0   582    25.03    636     2.1  0.45   2.2   0.059   0.000   29.2    26    0.33   701    1    100.0   30 
16/08/19 12:30p   15.5   16.1   15.5    49    4.8  11.3   NNW  5.63  41.8   NNE   15.1   14.3   13.5   18.7  1025.4  0.00   0.0   496    21.33    940     1.8  0.39   2.7   0.059   0.000   29.2    25    0.00   698    1    100.0   30 
16/08/19  1:00p   15.3   15.8   15.3    51    5.2   8.0   NNW  4.02  38.6   NNW   15.3   14.3   13.9   17.8  1025.3  0.00   0.0   323    13.89    541     1.3  0.28   2.1   0.063   0.000   29.4    25    0.28   703    1    100.0   30 
16/08/19  1:30p   14.6   15.3   14.6    57    6.1   3.2   NNW  1.61  30.6   NNE   14.6   13.7   13.7   13.8  1025.9  0.00   0.0    74     3.18    192     0.1  0.02   0.7   0.079   0.000   28.9    26    0.00   701    1    100.0   30 
16/08/19  2:00p   12.7   14.6   12.7    81    9.5   0.0    SW  0.00  16.1     W   12.7   12.5   12.5   12.8  1026.6  1.02   4.6    73     3.14     93     0.0  0.00   0.0   0.118   0.000   28.3    28    0.05   700    1    100.0   30 
16/08/19  2:30p   11.8   12.7   11.8    88    9.9   0.0    SW  0.00  22.5     W   11.8   11.8   11.8   12.0  1027.2  2.54   7.9    63     2.71    107     0.0  0.00   0.0   0.135   0.000   27.7    31    0.00   701    1    100.0   30 
16/08/19  3:00p   11.8   11.8   11.8    91   10.4   0.0   WNW  0.00  14.5   WNW   11.8   11.8   11.8   12.5  1027.5  1.02   5.1    78     3.35     97     0.0  0.00   0.0   0.137   0.000   27.2    32    0.03   700    1    100.0   30 
16/08/19  3:30p   11.9   11.9   11.7    92   10.6   0.0   WSW  0.00   1.6   WSW   11.9   12.0   12.0   14.1  1027.6  0.00   0.0   138     5.93    186     0.0  0.00   0.0   0.134   0.000   27.2    33    0.00   701    1    100.0   30 
16/08/19  4:00p   10.9   11.9   10.9    91    9.5   0.0    SW  0.00  16.1    SW   10.9   11.1   11.1   10.9  1028.3  1.52  21.1    38     1.63     76     0.0  0.00   0.0   0.154   0.000   27.2    34    0.05   702    1    100.0   30 
16/08/19  4:30p   10.9   10.9   10.8    92    9.6   0.0     S  0.00  16.1     S   10.9   11.1   11.1   10.2  1028.8  0.25   1.8    49     2.11     70     0.0  0.00   0.0   0.155   0.000   27.1    34    0.00   701    1    100.0   30 
16/08/19  5:00p   10.7   10.9   10.7    92    9.5   1.6   SSW  0.80  17.7   SSW   10.7   10.9   10.9    9.8  1029.4  0.00   0.0    33     1.42     62     0.0  0.00   0.0   0.159   0.000   26.9    34    0.03   675    1     98.7   30 
16/08/19  5:30p   10.4   10.7   10.4    91    9.0   1.6    SW  0.80  32.2     S   10.4   10.6   10.6    9.3  1030.0  0.00   0.0    11     0.47     18     0.0  0.00   0.0   0.164   0.000   26.9    34    0.00   701    1    100.0   30 
16/08/19  6:00p   10.2   10.4   10.2    90    8.7   1.6     S  0.80  24.1   SSE   10.2   10.4   10.4    8.9  1030.6  0.00   0.0     0     0.00      5     0.0  0.00   0.0   0.169   0.000   26.8    33    0.00   688    1    100.0   30 
16/08/19  6:30p   10.1   10.2   10.1    91    8.7   0.0   SSE  0.00  12.9   SSE   10.1   10.2   10.2    8.7  1031.2  0.00   0.0     0     0.00      0     0.0  0.00   0.0   0.172   0.000   26.5    34    0.00   694    1    100.0   30 
16/08/19  7:00p   10.0   10.1   10.0    91    8.6   0.0     S  0.00  11.3     S   10.0   10.2   10.2    8.7  1031.6  0.00   0.0     0     0.00      0     0.0  0.00   0.0   0.174   0.000   26.3    34    0.00   702    1    100.0   30 
16/08/19  7:30p    9.9   10.0    9.9    91    8.5   0.0     S  0.00   9.7     S    9.9   10.1   10.1    8.6  1032.1  0.00   0.0     0     0.00      0     0.0  0.00   0.0   0.175   0.000   26.1    34    0.00   700    1    100.0   30 
16/08/19  8:00p    9.9    9.9    9.9    91    8.5   0.0   WSW  0.00  20.9   WSW    9.9   10.1   10.1    8.6  1032.3  0.00   0.0     0     0.00      0     0.0  0.00   0.0   0.176   0.000   26.1    34    0.00   701    1    100.0   30 
16/08/19  8:30p    9.6    9.9    9.6    91    8.2   0.0   ---  0.00   0.0   ---    9.6    9.7    9.7    8.2  1032.7  0.00   0.0     0     0.00      0     0.0  0.00   0.0   0.183   0.000   26.6    34    0.00   679    1     99.3   30 
16/08/19  9:00p    9.3    9.6    9.3    91    7.9   0.0   ---  0.00   0.0   ---    9.3    9.4    9.4    7.9  1033.0  0.00   0.0     0     0.00      0     0.0  0.00   0.0   0.189   0.000   26.9    33    0.00   697    1    100.0   30 
16/08/19  9:30p    9.1    9.3    9.1    91    7.7   0.0     S  0.00  14.5     S    9.1    9.3    9.3    7.7  1033.2  0.00   0.0     0     0.00      0     0.0  0.00   0.0   0.192   0.000   26.9    33    0.00   702    1    100.0   30 
16/08/19 10:00p    8.8    9.1    8.8    91    7.4   0.0   ---  0.00   0.0   ---    8.8    8.9    8.9    7.4  1033.5  0.00   0.0     0     0.00      0     0.0  0.00   0.0   0.198   0.000   26.9    33    0.00   702    1    100.0   30 
16/08/19 10:30p    8.7    8.8    8.6    92    7.5   0.0   ---  0.00   0.0   ---    8.7    8.9    8.9    7.3  1033.5  0.00   0.0     0     0.00      0     0.0  0.00   0.0   0.200   0.000   26.8    33    0.00   702    1    100.0   30 
16/08/19 11:00p    8.3    8.7    8.3    92    7.1   0.0   ---  0.00   0.0   ---    8.3    8.4    8.4    6.8  1033.8  0.00   0.0     0     0.00      0     0.0  0.00   0.0   0.209   0.000   26.8    32    0.00   681    1     99.6   30 
16/08/19 11:30p    8.3    8.3    8.3    93    7.2   0.0   ---  0.00   0.0   ---    8.3    8.4    8.4    6.9  1034.1  0.00   0.0     0     0.00      0     0.0  0.00   0.0   0.209   0.000   26.7    32    0.00   699    1    100.0   30 
17/08/19 12:00a    8.2    8.3    8.2    93    7.2   0.0   ---  0.00   0.0   ---    8.2    8.4    8.4    6.8  1034.4  0.00   0.0     0     0.00      0     0.0  0.00   0.0   0.211   0.000   26.6    32    0.00   673    1     98.4   30 
17/08/19 12:30a    8.0    8.2    8.0    94    7.1   0.0   ---  0.00   0.0   ---    8.0    8.2    8.2    6.6  1034.3  0.00   0.0     0     0.00      0     0.0  0.00   0.0   0.215   0.000   26.6    32    0.00   701    1    100.0   30 
17/08/19  1:00a    7.9    8.1    7.9    94    7.0   0.0   ---  0.00   0.0   ---    7.9    8.1    8.1    6.6  1034.0  0.00   0.0     0     0.00      0     0.0  0.00   0.0   0.216   0.000   26.5    32    0.00   703    1    100.0   30 
17/08/19  1:30a    7.8    7.9    7.8    94    6.9   0.0   ---  0.00   0.0   ---    7.8    7.9    7.9    6.4  1033.9  0.00   0.0     0     0.00      0     0.0  0.00   0.0   0.220   0.000   26.4    32    0.00   700    1    100.0   30 
17/08/19  2:00a    7.6    7.8    7.6    94    6.7   0.0   ---  0.00   0.0   ---    7.6    7.7    7.7    6.1  1034.1  0.00   0.0     0     0.00      0     0.0  0.00   0.0   0.225   0.000   26.3    32    0.00   700    1    100.0   30 
17/08/19  2:30a    7.3    7.6    7.3    94    6.4   0.0   ---  0.00   0.0   ---    7.3    7.4    7.4    5.8  1034.2  0.00   0.0     0     0.00      0     0.0  0.00   0.0   0.229   0.000   26.2    32    0.00   700    1    100.0   30 
17/08/19  3:00a    7.0    7.4    7.0    94    6.1   0.0   ---  0.00   0.0   ---    7.0    7.1    7.1    5.5  1033.9  0.00   0.0     0     0.00      0     0.0  0.00   0.0   0.236   0.000   26.1    32    0.00   701    1    100.0   30 
17/08/19  3:30a    6.9    7.1    6.9    95    6.2   0.0   ---  0.00   0.0   ---    6.9    7.1    7.1    5.4  1033.9  0.00   0.0     0     0.00      0     0.0  0.00   0.0   0.237   0.000   26.1    32    0.00   672    1     98.2   30 
17/08/19  4:00a    6.3    6.9    6.3    95    5.6   0.0   ---  0.00   0.0   ---    6.3    6.4    6.4    4.8  1033.8  0.00   0.0     0     0.00      0     0.0  0.00   0.0   0.250   0.000   25.9    32    0.00   700    1    100.0   30 
17/08/19  4:30a    5.8    6.3    5.8    95    5.1   0.0   ---  0.00   0.0   ---    5.8    5.9    5.9    4.3  1033.9  0.00   0.0     0     0.00      0     0.0  0.00   0.0   0.260   0.000   25.8    31    0.00   701    1    100.0   30 
17/08/19  5:00a    5.5    5.8    5.5    95    4.8   0.0   ---  0.00   0.0   ---    5.5    5.6    5.6    3.9  1034.1  0.00   0.0     0     0.00      0     0.0  0.00   0.0   0.267   0.000   25.7    31    0.00   700    1    100.0   30 
17/08/19  5:30a    5.1    5.6    5.1    95    4.3   0.0   ---  0.00   0.0   ---    5.1    5.1    5.1    3.4  1034.4  0.00   0.0     0     0.00      0     0.0  0.00   0.0   0.277   0.000   25.5    31    0.00   700    1    100.0   30 
17/08/19  6:00a    4.6    5.1    4.6    95    3.9   0.0   ---  0.00   0.0   ---    4.6    4.7    4.7    3.0  1034.4  0.25   0.0     0     0.00      0     0.0  0.00   0.0   0.286   0.000   25.3    31    0.00   702    1    100.0   30 
17/08/19  6:30a    4.3    4.6    4.3    95    3.6   0.0   ---  0.00   0.0   ---    4.3    4.4    4.4    2.7  1034.7  0.00   0.0     0     0.00      0     0.0  0.00   0.0   0.292   0.000   25.2    31    0.00   701    1    100.0   30 
17/08/19  7:00a    4.6    4.6    4.3    96    4.0   0.0   ---  0.00   0.0   ---    4.6    4.6    4.6    2.9  1035.0  0.00   0.0     0     0.00      0     0.0  0.00   0.0   0.287   0.000   25.0    31    0.00   700    1    100.0   30 
17/08/19  7:30a    4.9    4.9    4.5    96    4.3   0.0   ---  0.00   0.0   ---    4.9    4.9    4.9    3.6  1035.3  0.00   0.0    19     0.82     51     0.0  0.00   0.0   0.280   0.000   24.9    31    0.00   701    1    100.0   30 
17/08/19  8:00a    5.5    5.5    4.9    96    4.9   0.0   ---  0.00   0.0   ---    5.5    5.6    5.6    4.9  1035.6  0.00   0.0    80     3.44    137     0.0  0.00   0.0   0.267   0.000   24.9    31    0.03   680    1     99.4   30 
17/08/19  8:30a    7.2    7.2    5.5    97    6.8   0.0   ---  0.00   0.0   ---    7.2    7.4    7.4   10.5  1035.7  0.00   0.0   204     8.77    250     0.0  0.00   0.0   0.231   0.000   24.9    31    0.00   698    1    100.0   30 
17/08/19  9:00a    8.3    8.3    7.2    97    7.9   0.0   ---  0.00   0.0   ---    8.3    8.6    8.6   11.8  1035.5  0.00   0.0   226     9.72    304     0.0  0.00   0.0   0.208   0.000   25.0    31    0.10   701    1    100.0   30 
17/08/19  9:30a    9.8    9.8    8.3    95    9.1   0.0   ---  0.00   0.0   ---    9.8   10.1   10.1   15.2  1035.2  0.00   0.0   353    15.18    396     0.6  0.13   0.8   0.177   0.000   25.1    31    0.00   702    1    100.0   30 
17/08/19 10:00a   11.4   11.4    9.8    86    9.2   0.0   ---  0.00   0.0   ---   11.4   11.4   11.4   17.2  1035.0  0.00   0.0   431    18.54    462     1.0  0.21   1.2   0.144   0.000   25.2    31    0.18   702    1    100.0   30 
17/08/19 10:30a   12.6   12.6   11.4    71    7.4   0.0   ---  0.00   0.0   ---   12.6   12.2   12.2   18.2  1034.8  0.00   0.0   494    21.24    538     1.4  0.30   1.6   0.120   0.000   25.4    31    0.00   701    1    100.0   30 
17/08/19 11:00a   13.0   13.2   12.5    67    7.0   0.0    SE  0.00   1.6    SE   13.0   12.5   12.5   19.1  1034.7  0.00   0.0   566    24.34    596     1.8  0.39   2.0   0.111   0.000   25.6    31    0.25   701    1    100.0   30 
17/08/19 11:30a   12.7   13.2   12.4    71    7.5   0.0    NE  0.00  19.3    NE   12.7   12.3   12.3   17.6  1034.3  0.00   0.0   507    21.80    647     1.9  0.41   2.2   0.118   0.000   25.9    31    0.00   701    1    100.0   30 
17/08/19 12:00p   13.3   13.3   12.7    66    7.1   1.6   ESE  0.80  25.7   ESE   13.3   12.7   12.7   18.8  1033.7  0.00   0.0   578    24.86    668     2.2  0.47   2.5   0.105   0.000   26.1    31    0.25   699    1    100.0   30 
17/08/19 12:30p   13.7   13.8   13.2    66    7.5   0.0    NE  0.00  17.7    NE   13.7   13.2   13.2   20.2  1033.0  0.00   0.0   643    27.65    670     2.5  0.54   2.6   0.096   0.000   26.3    31    0.00   702    1    100.0   30 
17/08/19  1:00p   14.1   14.1   13.3    65    7.6   0.0   ESE  0.00  12.9   ESE   14.1   13.6   13.6   20.2  1032.4  0.00   0.0   602    25.89    645     2.4  0.51   2.5   0.088   0.000   26.5    31    0.30   701    1    100.0   30 
17/08/19  1:30p   14.6   14.7   14.1    64    7.9   0.0     E  0.00  16.1     E   14.6   14.0   14.0   21.1  1031.8  0.00   0.0   599    25.76    612     2.4  0.51   2.5   0.078   0.000   26.7    31    0.00   701    1    100.0   30 
17/08/19  2:00p   15.2   15.3   14.7    61    7.7   1.6     E  0.80  16.1     E   15.2   14.5   14.5   21.6  1031.2  0.00   0.0   565    24.30    584     2.1  0.45   2.3   0.066   0.000   26.9    30    0.30   703    1    100.0   30 
17/08/19  2:30p   15.6   15.7   15.0    61    8.1   1.6   NNE  0.80  20.9    NE   15.6   14.9   14.9   22.0  1030.8  0.00   0.0   517    22.23    541     1.8  0.39   2.0   0.058   0.000   26.8    30    0.00   656    1     95.9   30 
17/08/19  3:00p   15.7   15.9   15.6    61    8.2   1.6   NNE  0.80  20.9   NNE   15.7   15.1   15.1   22.0  1030.7  0.00   0.0   454    19.52    490     1.4  0.30   1.6   0.054   0.000   26.8    30    0.25   703    1    100.0   30 
17/08/19  3:30p   16.1   16.2   15.7    60    8.3   0.0   NNE  0.00   9.7   NNE   16.1   15.4   15.4   21.9  1030.4  0.00   0.0   379    16.30    417     1.0  0.21   1.2   0.046   0.000   26.8    31    0.00   701    1    100.0   30 
17/08/19  4:00p   16.6   16.6   16.1    59    8.6   0.0     N  0.00  17.7     N   16.6   15.9   15.9   21.3  1030.3  0.00   0.0   297    12.77    336     0.6  0.13   0.8   0.036   0.000   26.8    31    0.18   700    1    100.0   30 
17/08/19  4:30p   15.5   16.6   15.5    63    8.5   1.6     N  0.80  19.3     N   15.5   14.9   14.9   15.0  1030.2  0.00   0.0   165     7.10    255     0.1  0.02   0.5   0.059   0.000   26.8    31    0.00   699    1    100.0   30 
17/08/19  5:00p   14.7   15.4   14.7    67    8.6   0.0   ---  0.00   0.0   ---   14.7   14.2   14.2   12.7  1030.2  0.00   0.0    34     1.46     39     0.0  0.00   0.0   0.076   0.000   26.8    31    0.00   651    1     95.2   30 
17/08/19  5:30p   13.8   14.7   13.8    72    8.9   0.0   ---  0.00   0.0   ---   13.8   13.4   13.4   12.0  1029.9  0.00   0.0    32     1.38     46     0.0  0.00   0.0   0.094   0.000   26.8    31    0.05   702    1    100.0   30 
17/08/19  6:00p   12.9   13.8   12.9    74    8.4   0.0   ---  0.00   0.0   ---   12.9   12.6   12.6   10.8  1029.9  0.00   0.0     4     0.17     16     0.0  0.00   0.0   0.113   0.000   26.9    31    0.03   699    1    100.0   30 
17/08/19  6:30p   11.2   12.9   11.2    77    7.3   0.0   ---  0.00   0.0   ---   11.2   11.1   11.1    9.2  1029.7  0.00   0.0     0     0.00      0     0.0  0.00   0.0   0.148   0.000   26.8    31    0.00   701    1    100.0   30 
17/08/19  7:00p    9.7   11.2    9.7    81    6.6   0.0   ---  0.00   0.0   ---    9.7    9.7    9.7    7.8  1030.1  0.00   0.0     0     0.00      0     0.0  0.00   0.0   0.179   0.000   26.7    31    0.03   696    1    100.0   30 
17/08/19  7:30p    8.8    9.7    8.8    85    6.4   0.0   ---  0.00   0.0   ---    8.8    8.8    8.8    6.8  1030.3  0.00   0.0     0     0.00      0     0.0  0.00   0.0   0.199   0.000   26.5    31    0.00   701    1    100.0   30 
17/08/19  8:00p    7.9    8.8    7.9    87    5.9   0.0   ---  0.00   0.0   ---    7.9    7.9    7.9    5.9  1030.2  0.00   0.0     0     0.00      0     0.0  0.00   0.0   0.218   0.000   26.4    31    0.00   673    1     98.4   30 
17/08/19  8:30p    7.2    7.9    7.2    89    5.5   0.0   ---  0.00   0.0   ---    7.2    7.2    7.2    5.2  1030.2  0.00   0.0     0     0.00      0     0.0  0.00   0.0   0.233   0.000   26.2    31    0.00   700    1    100.0   30 
17/08/19  9:00p    6.3    7.2    6.3    90    4.8   0.0   ---  0.00   0.0   ---    6.3    6.3    6.3    4.3  1029.9  0.00   0.0     0     0.00      0     0.0  0.00   0.0   0.250   0.000   26.0    31    0.00   678    1     99.1   30 
17/08/19  9:30p    5.8    6.3    5.8    91    4.5   0.0   ---  0.00   0.0   ---    5.8    5.8    5.8    3.8  1030.2  0.00   0.0     0     0.00      0     0.0  0.00   0.0   0.260   0.000   25.7    31    0.00   701    1    100.0   30 
17/08/19 10:00p    5.3    5.8    5.3    91    3.9   0.0   ---  0.00   0.0   ---    5.3    5.3    5.3    3.2  1030.2  0.00   0.0     0     0.00      0     0.0  0.00   0.0   0.272   0.000   25.5    31    0.00   702    1    100.0   30 
17/08/19 10:30p    4.8    5.3    4.8    92    3.6   0.0   ---  0.00   0.0   ---    4.8    4.8    4.8    2.8  1029.5  0.00   0.0     0     0.00      0     0.0  0.00   0.0   0.281   0.000   25.3    31    0.00   702    1    100.0   30 
17/08/19 11:00p    7.3    7.3    4.8    95    6.5   0.0     N  0.00  12.9     N    7.3    7.4    7.4    5.4  1028.6  0.00   0.0     0     0.00      0     0.0  0.00   0.0   0.230   0.000   25.2    31    0.00   673    1     98.4   30 
17/08/19 11:30p   11.1   11.1    7.3    79    7.6   4.8     N  2.41  35.4   NNE   11.1   11.0   10.9    9.0  1028.2  0.00   0.0     0     0.00      0     0.0  0.00   0.0   0.150   0.000   25.0    31    0.00   701    1    100.0   30 
18/08/19 12:00a   11.2   11.4   11.1    77    7.3   6.4   NNE  3.22  33.8   NNE   10.8   11.1   10.5    8.6  1027.9  0.00   0.0     0     0.00      0     0.0  0.00   0.0   0.148   0.000   25.0    31    0.03   682    1     99.7   30 
18/08/19 12:30a   10.8   11.2   10.8    78    7.1   4.8   NNE  2.41  32.2    NE   10.8   10.7   10.6    8.6  1027.9  0.00   0.0     0     0.00      0     0.0  0.00   0.0   0.156   0.000   24.9    31    0.00   702    1    100.0   30 
18/08/19  1:00a   10.8   10.9   10.8    78    7.1   1.6   NNE  0.80  35.4   NNE   10.8   10.7   10.7    8.8  1027.1  0.00   0.0     0     0.00      0     0.0  0.00   0.0   0.156   0.000   24.9    31    0.03   700    1    100.0   30 
18/08/19  1:30a   11.1   11.2   10.8    77    7.2   3.2   NNE  1.61  35.4     N   11.1   10.9   10.9    9.1  1026.7  0.00   0.0     0     0.00      0     0.0  0.00   0.0   0.150   0.000   24.9    31    0.00   700    1    100.0   30 
18/08/19  2:00a   11.1   11.2   10.9    76    7.0   3.2     N  1.61  30.6     N   11.1   10.9   10.9    8.9  1026.3  0.00   0.0     0     0.00      0     0.0  0.00   0.0   0.150   0.000   24.9    31    0.03   700    1    100.0   30 
18/08/19  2:30a   11.7   11.7   11.1    73    7.0   3.2   NNE  1.61  33.8   NNE   11.7   11.3   11.3    9.4  1025.9  0.00   0.0     0     0.00      0     0.0  0.00   0.0   0.139   0.000   24.9    31    0.00   703    1    100.0   30 
18/08/19  3:00a   11.8   11.9   11.6    70    6.5   4.8   NNE  2.41  40.2    NE   11.8   11.4   11.3    9.4  1025.4  0.00   0.0     0     0.00      0     0.0  0.00   0.0   0.135   0.000   25.0    31    0.03   701    1    100.0   30 
18/08/19  3:30a   11.9   11.9   11.8    69    6.4   6.4   NNE  3.22  33.8   NNE   11.6   11.5   11.0    9.1  1025.1  0.00   0.0     0     0.00      0     0.0  0.00   0.0   0.133   0.000   25.0    31    0.00   700    1    100.0   30 
18/08/19  4:00a   12.1   12.1   11.9    68    6.3   3.2   NNE  1.61  29.0   NNE   12.1   11.6   11.6    9.7  1024.6  0.00   0.0     0     0.00      0     0.0  0.00   0.0   0.131   0.000   25.0    31    0.03   701    1    100.0   30 
18/08/19  4:30a   12.7   12.7   12.1    64    6.1   8.0   NNE  4.02  45.1    NE   12.2   12.1   11.4    9.4  1024.4  0.00   0.0     0     0.00      0     0.0  0.00   0.0   0.117   0.000   25.1    31    0.00   701    1    100.0   30 
18/08/19  5:00a   12.8   12.9   12.7    63    6.0  11.3   NNE  5.63  51.5    NE   11.8   12.2   11.1    9.2  1023.5  0.00   0.0     0     0.00      0     0.0  0.00   0.0   0.115   0.000   25.1    31    0.05   702    1    100.0   30 
18/08/19  5:30a   12.9   12.9   12.8    62    5.8   9.7   NNE  4.83  35.4   NNE   12.2   12.3   11.4    9.4  1023.2  0.00   0.0     0     0.00      0     0.0  0.00   0.0   0.112   0.000   25.2    31    0.00   701    1    100.0   30 
18/08/19  6:00a   13.1   13.2   12.9    61    5.7   8.0   NNE  4.02  35.4    NE   12.6   12.4   11.7    9.7  1022.9  0.00   0.0     0     0.00      0     0.0  0.00   0.0   0.110   0.000   25.2    31    0.05   698    1    100.0   30 
18/08/19  6:30a   13.2   13.2   12.9    60    5.6   9.7   NNE  4.83  37.0    NE   12.5   12.4   11.6    9.6  1022.5  0.00   0.0     0     0.00      0     0.0  0.00   0.0   0.108   0.000   25.3    31    0.00   700    1    100.0   30 
18/08/19  7:00a   13.2   13.2   12.8    60    5.6   8.0   NNE  4.02  43.5   NNE   12.7   12.4   11.8    9.8  1022.0  0.00   0.0     0     0.00      0     0.0  0.00   0.0   0.108   0.000   25.3    31    0.05   702    1    100.0   30 
18/08/19  7:30a   13.8   13.8   13.2    58    5.7  19.3   NNE  9.66  51.5   NNE   12.2   13.0   10.8    9.3  1021.5  0.00   0.0    13     0.56     33     0.0  0.00   0.0   0.095   0.000   25.3    30    0.00   701    1    100.0   30 
18/08/19  8:00a   14.3   14.3   13.8    57    5.9  17.7   NNE  8.85  54.7   NNE   12.9   13.4   11.5   10.6  1021.4  0.00   0.0    74     3.18    118     0.0  0.00   0.0   0.084   0.000   25.3    30    0.13   698    1    100.0   30 
18/08/19  8:30a   15.1   15.1   14.3    55    6.1   9.7   NNE  4.83  43.5   NNE   14.8   14.2   13.6   16.0  1021.5  0.00   0.0   176     7.57    227     0.0  0.00   0.0   0.067   0.000   25.4    30    0.00   701    1    100.0   30 
18/08/19  9:00a   15.6   15.6   15.1    53    6.1  20.9   NNE 10.46  53.1   NNE   14.4   14.6   12.4   15.3  1020.7  0.00   0.0   262    11.27    315     0.2  0.04   0.6   0.057   0.000   25.5    30    0.20   702    1    100.0   30 
18/08/19  9:30a   17.0   17.0   15.7    49    6.2  17.7   NNE  8.85  51.5   NNE   16.4   15.9   14.2   18.4  1019.7  0.00   0.0   357    15.35    396     0.7  0.15   0.9   0.028   0.000   25.6    30    0.00   703    1    100.0   30 
18/08/19 10:00a   17.6   17.6   16.9    47    6.1  19.3   NNE  9.66  64.4    NE   16.9   16.4   14.5   19.1  1019.2  0.00   0.0   434    18.66    468     1.1  0.24   1.3   0.016   0.000   25.7    30    0.33   701    1    100.0   30 
18/08/19 10:30a   18.2   18.2   17.6    46    6.4  22.5   NNE 11.27  66.0    NE   17.6   17.0   14.7   19.2  1018.9  0.00   0.0   501    21.55    529     1.5  0.32   1.6   0.003   0.000   25.9    30    0.00   697    1    100.0   30 
18/08/19 11:00a   19.1   19.1   18.2    41    5.5  19.3   NNE  9.66  57.9    NE   18.9   17.7   15.9   21.0  1018.5  0.00   0.0   555    23.87    584     1.8  0.39   2.0   0.000   0.016   26.2    30    0.43   700    1    100.0   30 
18/08/19 11:30a   19.6   19.6   19.1    40    5.6  19.3   NNE  9.66  64.4    NE   19.6   18.2   16.5   21.7  1018.0  0.00   0.0   591    25.42    659     2.1  0.45   2.3   0.000   0.027   26.4    30    0.00   700    1    100.0   30 
18/08/19 12:00p   19.6   19.8   19.6    37    4.5  17.7     N  8.85  62.8   NNE   19.6   18.0   16.5   21.9  1017.7  0.00   0.0   609    26.19    796     2.2  0.47   2.8   0.000   0.025   26.7    30    0.48   701    1    100.0   30 
18/08/19 12:30p   19.2   19.6   19.0    39    4.9  16.1   NNW  8.05  54.7    NE   19.2   17.7   16.4   21.4  1017.9  0.00   0.0   570    24.51    775     2.3  0.49   2.9   0.000   0.017   26.7    30    0.00   699    1    100.0   30 
18/08/19  1:00p   17.7   19.2   17.7    46    5.9  12.9   NNW  6.44  48.3   NNE   17.6   16.6   15.6   20.5  1018.1  0.00   0.0   452    19.44    789     2.0  0.43   2.7   0.013   0.000   26.8    29    0.41   701    1    100.0   30 
18/08/19  1:30p   16.6   17.7   16.6    52    6.7  11.3     N  5.63  43.5   NNE   16.3   15.6   14.9   17.1  1017.8  0.00   0.0   192     8.26    301     0.8  0.17   1.5   0.037   0.000   26.8    29    0.00   700    1    100.0   30 
18/08/19  2:00p   16.7   16.8   16.4    51    6.5   8.0     N  4.02  35.4     N   16.7   15.7   15.4   18.4  1017.4  0.00   0.0   232     9.98    397     0.8  0.17   1.4   0.034   0.000   26.7    30    0.18   701    1    100.0   30 
18/08/19  2:30p   16.1   16.7   16.1    52    6.2   4.8   NNW  2.41  32.2   NNE   16.1   15.1   15.1   16.4  1017.3  0.00   0.0   124     5.33    174     0.2  0.04   0.6   0.046   0.000   26.7    30    0.00   657    1     96.1   30 
18/08/19  3:00p   14.4   16.1   14.4    64    7.7   3.2   NNW  1.61  35.4    NE   14.4   13.8   13.8   13.6  1017.7  0.00   0.0    43     1.85     91     0.0  0.00   0.0   0.081   0.000   26.8    30    0.08   699    1    100.0   30 
18/08/19  3:30p   12.6   14.4   12.6    80    9.2   0.0   ---  0.00   0.0   ---   12.6   12.4   12.4   11.7  1018.4  2.03   4.8    20     0.86     26     0.0  0.00   0.0   0.120   0.000   26.7    30    0.00   700    1    100.0   30 
18/08/19  4:00p   11.1   12.6   11.1    86    8.8   1.6     N  0.80  17.7   WNW   11.1   11.1   11.1   10.3  1018.4  2.54   9.7    15     0.65     19     0.0  0.00   0.0   0.152   0.000   26.8    30    0.03   702    1    100.0   30 
18/08/19  4:30p   10.0   11.0   10.0    87    7.9   3.2     N  1.61  43.5    NE   10.0   10.1   10.1    8.9  1018.8  1.52   3.6    18     0.77     28     0.0  0.00   0.0   0.174   0.000   26.9    30    0.00   701    1    100.0   30 
18/08/19  5:00p    9.5   10.0    9.5    89    7.8   3.2   NNE  1.61  32.2   NNE    9.5    9.7    9.7    8.5  1018.3  0.51   3.6    22     0.95     30     0.0  0.00   0.0   0.184   0.000   26.8    30    0.03   700    1    100.0   30 
18/08/19  5:30p    9.4    9.5    9.3    88    7.5   6.4   NNE  3.22  30.6     N    8.7    9.5    8.8    7.4  1018.4  0.00   0.0    10     0.43     16     0.0  0.00   0.0   0.186   0.000   26.7    30    0.00   702    1    100.0   30 
18/08/19  6:00p    9.4    9.4    9.3    87    7.4   1.6     N  0.80  27.4   NNE    9.4    9.6    9.6    8.1  1017.6  0.00   0.0     3     0.13     11     0.0  0.00   0.0   0.185   0.000   26.7    30    0.00   700    1    100.0   30 
18/08/19  6:30p    9.7    9.7    9.4    85    7.3   3.2     N  1.61  29.0     N    9.7    9.7    9.7    8.2  1018.2  0.00   0.0     0     0.00      0     0.0  0.00   0.0   0.181   0.000   26.6    30    0.00   700    1    100.0   30 
18/08/19  7:00p    9.8    9.9    9.7    83    7.1   1.6     N  0.80  25.7    NW    9.8    9.8    9.8    8.3  1018.8  0.00   0.0     0     0.00      0     0.0  0.00   0.0   0.177   0.000   26.5    30    0.03   703    1    100.0   30 
18/08/19  7:30p    9.8    9.9    9.8    79    6.4   1.6     N  0.80  25.7     N    9.8    9.8    9.8    8.3  1019.1  0.00   0.0     0     0.00      0     0.0  0.00   0.0   0.177   0.000   26.4    30    0.00   701    1    100.0   30 
18/08/19  8:00p   10.0   10.0    9.8    75    5.8   1.6     N  0.80  35.4     N   10.0    9.9    9.9    8.3  1019.4  0.00   0.0     0     0.00      0     0.0  0.00   0.0   0.174   0.000   26.2    30    0.03   701    1    100.0   30 
18/08/19  8:30p   10.1   10.2   10.0    72    5.2   8.0   NNW  4.02  32.2     N    9.1    9.9    8.9    7.3  1020.7  0.00   0.0     0     0.00      0     0.0  0.00   0.0   0.172   0.000   26.1    30    0.00   700    1    100.0   30 
18/08/19  9:00p    8.7   10.0    8.7    76    4.7   8.0     W  4.02  35.4    NE    7.4    8.5    7.3    5.7  1021.4  0.00   0.0     0     0.00      0     0.0  0.00   0.0   0.201   0.000   26.0    30    0.03   674    1     98.5   30 
18/08/19  9:30p    8.3    8.7    8.3    76    4.3   4.8    SW  2.41  25.7   SSE    7.9    8.1    7.7    6.1  1021.7  0.00   0.0     0     0.00      0     0.0  0.00   0.0   0.209   0.000   26.0    30    0.00   700    1    100.0   30 
18/08/19 10:00p    8.4    8.4    8.3    74    4.1   6.4   WSW  3.22  40.2   SSW    7.6    8.3    7.4    5.8  1022.6  0.00   0.0     0     0.00      0     0.0  0.00   0.0   0.206   0.000   25.9    30    0.03   700    1    100.0   30 
18/08/19 10:30p    8.2    8.4    8.2    76    4.2   3.2   WSW  1.61  35.4    NE    8.2    8.1    8.1    6.4  1023.2  0.00   0.0     0     0.00      0     0.0  0.00   0.0   0.211   0.000   25.8    30    0.00   699    1    100.0   30